Date	Time of Day	Time of Run (sec)	Data PointGroup	Data Point Number	N1 Frequency (Hz)	N1 Percent	N1 RPM (51,120)	N2 Frequency (Hz)	N2 Percent	N2 RPM (35,000)	Engine TOT (F)	Air Plenum Temperature (F)	Ambient Temperature (F)	Ambient Pressure (psia)	Ambient Relative Humidity	Compressor Bleed Temperature (F)	Compressor Bleed Pressure (psig)	Bleed Temperature (F)	Bleed Pressure (in H2O)	Bleed Pressure (psia)	Bleed DP Pressure (in H2O)	Bleed Air SV	Sample	Orifice Plate	Sonic Orifice Plate Dia.	Dyno RPM	Dyno Torque (lbf*ft)	Dyno HorsePower (Hp)	Compressor Bleed Pressure (psia)	Compressor Pressure Ratio	Compressor Bleed Temperature (C)	Comp Simple Isentropic Temp Expected (C)	Bleed Air Mass Flow (lbm/min)	Bleed Air Volumetric Flow (SCFM)	Bleed Air Volumetric Flow (LPM)
9/26/2014 2:15:10 PM	14:15:10	0	A	1	-1	0	0	0	0	0	86.14487	90.33158	87.49356	14.27287	30.13	87.9077	-0.2949982	86.45337	-0.191	14.26565	2.700043E-02	0	1	1	0.15	-2	-0.2001953	7.623425E-05	13.97287	0.9789809	31.05984	30.59064	0.1385216	1.811028	51.28252
9/26/2014 2:15:21 PM	14:15:21	0	A	1	-1	0	0	0	0	0	86.27708	90.41972	87.5192	14.27287	29.995	87.77548	-0.3000031	86.32115	-0.1940002	14.26601	3.000069E-02	0	1	1	0.15	-2	0	0	13.97287	0.9789809	30.98638	30.63929	0.1409615	1.842927	52.18578
9/26/2014 2:51:06 PM	14:51:06	0	A	1	43	61.42857	31402.29	26	37.14286	13000	1005.55	92.18254	87.87833	14.271	29.88499	233.5535	17.67	90.28751	0.3419991	14.28697	0.5949993	1	3	1	0.15	2208	52	21.77677	32.03099	2.244481	111.9742	111.4994	0.6251313	8.172951	231.4318
9/26/2014 2:51:16 PM	14:51:16	0	A	1	43	61.42857	31402.29	27	38.57143	13500	1001.029	92.4029	87.88684	14.27025	29.67	234.2491	17.67999	90.28751	0.4029999	14.28348	0.5909996	1	3	1	0.15	2208	51.6001	21.69281	32.18524	2.255409	112.3606	112.1778	0.622965	8.144628	230.6298
9/26/2014 2:51:26 PM	14:51:26	0	A	1	44	62.85714	32132.57	27	38.57143	13500	996.2551	92.09441	87.88684	14.27025	29.67	234.2926	17.84	90.46379	0.3939991	14.28557	0.5839996	1	3	1	0.15	2221	51.7998	21.90498	32.27525	2.261716	112.3848	112.2643	0.6213445	8.123442	230.0299
9/26/2014 2:51:36 PM	14:51:36	0	A	1	43	61.42857	31402.29	28	40	14000	996.8043	91.78591	87.89539	14.27062	29.09	234.5099	18.02499	90.55194	0.3799992	14.28526	0.5960007	1	3	1	0.15	2228	51.3999	21.80438	32.15562	2.253273	112.5055	111.6449	0.6254792	8.177498	231.5606
9/26/2014 2:51:46 PM	14:51:46	0	A	1	44	62.85714	32132.57	27	38.57143	13500	994.903	91.213	87.92105	14.271	28.86	234.9446	18.09	90.59601	0.4050007	14.28448	0.5909996	1	3	1	0.15	2232	51.3999	21.84352	32.266	2.260948	112.747	111.612	0.6228315	8.142882	230.5804
9/26/2014 2:51:56 PM	14:51:56	0	A	1	43	61.42857	31402.29	26	37.14286	13000	996.8466	90.64008	87.92105	14.271	28.86	235.0751	17.86	90.59601	0.4440002	14.2856	0.5930004	1	3	1	0.15	2240	51.7998	22.09237	32.101	2.249387	112.8195	110.6594	0.6238742	8.156515	230.9664
9/26/2014 2:52:06 PM	14:52:06	0	A	1	44	62.85714	32132.57	31	44.28571	15500	991.6919	90.86044	87.92105	14.27062	30.44501	235.3794	18.045	90.77229	0.3850002	14.28255	0.6030006	1	3	1	0.15	2245	51.6001	22.05632	32.36562	2.267989	112.9885	111.7013	0.6289333	8.222657	232.8393
9/26/2014 2:52:16 PM	14:52:16	0	A	1	44	62.85714	32132.57	27	40	14000	990.2131	90.24344	87.9296	14.27062	30.455	235.2489	17.985	90.64008	0.4249992	14.28461	0.5970001	1	3	1	0.15	2266	52.2002	22.52155	32.44062	2.273245	112.9161	111.5198	0.6259573	8.183748	231.7375
9/26/2014 2:52:26 PM	14:52:26	0	A	1	43	61.42857	31402.29	27	38.57143	13500	996.593	90.9045	87.9296	14.27062	30.455	235.7272	17.88499	90.81635	0.4510002	14.28627	0.5919991	1	3	1	0.15	2251	52	22.28666	32.09063	2.248719	113.1818	110.8118	0.623269	8.148602	230.7423
9/26/2014 2:52:36 PM	14:52:36	0	A	1	43	62.85714	32132.57	31	44.28571	15500	992.8327	90.72821	87.94672	14.271	30.37	236.0717	18.065	90.81635	0.375	14.28531	0.5890007	1	3	1	0.15	2266	51.7998	22.3488	32.456	2.274262	113.3731	111.9072	0.6216615	8.127586	230.1472
9/26/2014 2:52:46 PM	14:52:46	0	A	1	44	62.85714	32132.57	27	38.57143	13500	990.0864	90.46379	87.94672	14.27062	30.36501	236.248	17.91	90.86044	0.427	14.28551	0.5890007	1	3	1	0.15	2271	51.7998	22.39812	32.33062	2.265537	113.4711	111.3073	0.6216421	8.127332	230.14
9/26/2014 2:52:56 PM	14:52:56	0	A	1	43	61.42857	31402.29	33	47.14286	16500	992.2834	90.64008	87.94672	14.27062	30.36501	236.4686	18.11501	90.94857	0.4050007	14.28541	0.5930004	1	3	1	0.15	2272	52.2002	22.58118	31.92062	2.236806	113.5936	110.0558	0.6210655	8.119794	229.9266
9/26/2014 2:53:06 PM	14:53:06	0	A	1	43	62.85714	32132.57	28	38.57143	13500	991.6074	90.55194	87.95523	14.27062	30.16499	236.8655	17.95	90.94857	0.4559994	14.28508	0.5869999	1	3	1	0.15	2261	51.2002	22.04136	32.08062	2.248018	113.8141	110.5323	0.6236585	8.153694	230.8865
9/26/2014 2:53:16 PM	14:53:16	0	A	1	43	61.42857	31402.29	26	38.57143	13500	989.7061	90.02309	87.97235	14.27062	29.77	236.7773	18.035	90.99264	0.3920002	14.28497	0.5790005	1	3	1	0.15	2276	51.3999	22.27413	32.27563	2.261683	113.7652	110.8159	0.6157123	8.049807	227.9448
9/26/2014 2:53:26 PM	14:53:26	0	A	1	44	61.42857	31402.29	28	40	14000	990.3821	89.80274	87.97235	14.27062	29.77	236.8214	18.17	91.16891	0.427	14.28663	0.5930004	1	3	1	0.15	2277	51.2002	22.11054	32.42062	2.271843	113.7896	111.145	0.6236097	8.153057	230.8685
9/26/2014 2:53:36 PM	14:53:36	0	A	1	43	61.42857	31402.29	27	38.57143	13500	989.2836	89.89088	87.98944	14.27025	29.495	236.6009	17.845	91.213	0.3959999	14.2842	0.5879993	1	3	1	0.15	2270	51	21.95604	32.11525	2.250504	113.6672	110.1902	0.6208711	8.117251	229.8546
9/26/2014 2:53:46 PM	14:53:46	0	A	1	44	62.85714	32132.57	34	38.57143	13500	991.0159	90.33158	87.97235	14.27062	29.845	236.9096	18.155	91.12485	0.4540005	14.2858	0.5830002	1	3	1	0.15	2258	51.2002	22.09797	32.26562	2.260982	113.8387	110.9979	0.6183065	8.083722	228.9051
9/26/2014 2:53:56 PM	14:53:56	0	A	1	43	61.42857	31402.29	32	38.57143	13500	993.3397	90.11123	87.97235	14.27062	29.845	237.2183	17.985	90.99264	0.4029999	14.28555	0.5799999	1	3	1	0.15	2253	51.7998	22.13492	32.03562	2.244865	114.0102	110.0741	0.6167854	8.063836	228.342
9/26/2014 2:54:06 PM	14:54:06	0	A	1	43	61.42857	31402.29	28	42.85714	15000	989.8329	90.19937	87.97235	14.271	29.795	237.3947	18.05499	91.08078	0.4740009	14.28368	0.5860004	1	3	1	0.15	2246	51.2002	21.98053	32.381	2.269007	114.1082	111.2876	0.6198918	8.104449	229.4921
9/26/2014 2:54:16 PM	14:54:16	0	A	1	44	62.85714	32132.57	27	38.57143	13500	989.8752	90.19937	87.97235	14.271	29.81	237.3506	18.08	91.03671	0.4379997	14.28744	0.5830002	1	3	1	0.15	2251	52	22.28666	32.06099	2.246583	114.0837	110.2178	0.6184272	8.0853	228.9498
9/26/2014 2:54:26 PM	14:54:26	0	A	1	43	61.42857	31402.29	27	38.57143	13500	993.2552	90.37565	87.97235	14.271	29.81	237.4829	17.94	91.03671	0.3810005	14.28795	0.5709991	1	3	1	0.15	2242	51.3999	21.85614	31.961	2.239577	114.1572	110.0048	0.6120404	8.001801	226.5854
9/26/2014 2:54:36 PM	14:54:36	0	A	1	43	61.42857	31402.29	27	37.14286	13000	993.2552	90.59601	87.95523	14.27062	29.58501	238.0121	18.05	91.16891	0.4239998	14.28555	0.5869999	1	3	1	0.15	2237	51.7998	22.14805	32.24062	2.25923	114.4512	111.0991	0.6203924	8.110993	229.6774
9/26/2014 2:54:46 PM	14:54:46	0	A	1	43	61.42857	31402.29	28	42.85714	15000	986.8753	90.33158	87.94672	14.27025	29.2	237.7916	18.185	91.213	0.4209995	14.28442	0.5760002	1	3	1	0.15	2249	51.7998	22.18114	32.22025	2.257862	114.3287	110.8492	0.6161442	8.055453	228.1047
9/26/2014 2:54:56 PM	14:54:56	0	A	1	44	62.85714	32132.57	34	37.14286	13000	986.3683	90.1553	87.94672	14.27025	29.2	237.6593	18.075	91.34521	0.427	14.28568	0.573	1	3	1	0.15	2255	51.7998	22.24031	32.39024	2.269774	114.2552	111.2933	0.6128874	8.012874	226.8989
9/26/2014 2:55:06 PM	14:55:06	0	A	1	44	61.42857	31402.29	31	44.28571	15500	991.1849	90.24344	87.92105	14.271	29.28	237.7475	17.815	91.30114	0.4069996	14.28607	0.5690002	1	3	1	0.15	2251	51.7998	22.11527	32.29599	2.263051	114.3042	111.035	0.6107661	7.985139	226.1136
9/26/2014 2:55:16 PM	14:55:16	10	A	1	44	62.85714	32132.57	26	38.57143	13500	985.481	90.11123	87.94672	14.271	29.72501	237.6152	18.17999	91.16891	0.3700008	14.28437	0.5830002	1	3	1	0.15	2259	51.6001	22.10776	32.286	2.26235	114.2307	110.9092	0.6182579	8.083088	228.8872
9/26/2014 2:55:26 PM	14:55:26	20	A	1	44	61.42857	31402.29	26	37.14286	13000	985.2275	89.53831	87.94672	14.271	29.72501	237.6593	18.125	91.213	0.4500008	14.28542	0.5779991	1	3	1	0.15	2262	51.6001	22.22334	32.31099	2.264102	114.2552	110.5923	0.6156162	8.048551	227.9092
9/26/2014 2:55:36 PM	14:55:36	30	A	1	43	61.42857	31402.29	27	40	14000	995.9594	90.28751	87.94672	14.27025	30.66499	237.9239	17.69	91.34521	0.3850002	14.28568	0.5690002	1	3	1	0.15	2242	52	22.1121	32.09026	2.248752	114.4022	110.3831	0.6107215	7.984557	226.0971
9/26/2014 2:55:46 PM	14:55:46	40	A	1	43	61.42857	31402.29	32	45.71429	16000	988.5231	90.59601	87.94672	14.27025	30.66499	237.968	18.125	91.38927	0.4349995	14.28416	0.5849991	1	3	1	0.15	2241	52	22.18765	32.18025	2.255059	114.4267	110.8999	0.6191767	8.0951	229.2273
9/26/2014 2:55:56 PM	14:55:56	50	A	1	43	61.42857	31402.29	27	38.57143	13500	990.3821	90.94857	87.93817	14.27062	31.395	237.7475	17.61	91.43334	0.4389992	14.28663	0.5699997	1	3	1	0.15	2228	51.3999	21.80438	32.07063	2.247318	114.3042	110.7754	0.6112418	7.991359	226.2897
9/26/2014 2:56:06 PM	14:56:06	60	A	1	43	61.42857	31402.29	26	35.71429	12500	989.4949	90.99264	87.97235	14.271	30.715	238.2326	17.715	91.6537	0.3999996	14.28437	0.5849991	1	3	1	0.15	2231	52.2002	22.17369	32.516	2.278466	114.5737	112.2919	0.6174813	8.072934	228.5997
9/26/2014 2:56:16 PM	14:56:16	70	A	1	43	61.42857	31402.29	27	41.42857	14500	987.2556	90.50787	87.98087	14.27138	30.63	237.968	17.88499	91.6537	0.3789997	14.28619	0.5849991	1	3	1	0.15	2238	51.2002	21.81714	32.48138	2.275981	114.4267	111.8346	0.6190845	8.093894	229.1932
9/26/2014 2:56:26 PM	14:56:26	80	A	1	44	62.85714	32132.57	29	48.57143	17000	983.622	89.71458	87.98087	14.27138	30.63	237.7475	17.81	91.56557	0.3589993	14.28504	0.5769997	1	3	1	0.15	2248	51.2002	21.91463	32.46638	2.27493	114.3042	111.2297	0.6148885	8.039036	227.6398
9/26/2014 2:56:36 PM	14:56:36	90	A	1	44	62.85714	32132.57	34	48.57143	17000	982.946	89.4061	87.96381	14.27062	30.37	237.4388	18	91.6537	0.4069996	14.28699	0.5769997	1	3	1	0.15	2254	51.6001	22.14474	32.31062	2.264135	114.1327	110.5015	0.6148773	8.03889	227.6356
9/26/2014 2:56:46 PM	14:56:46	100	A	1	43	62.85714	32132.57	30	37.14286	13000	984.805	88.92133	87.96381	14.27062	30.37	237.3065	18.035	91.52148	0.4370003	14.28678	0.5799999	1	3	1	0.15	2257	51.7998	22.26004	32.28062	2.262033	114.0592	110.0629	0.6149436	8.039756	227.6602
9/26/2014 2:56:56 PM	14:56:56	110	A	1	43	61.42857	31402.29	28	41.42857	14500	981.763	88.78911	87.99799	14.27062	30.405	237.3506	17.905	91.56557	0.3789997	14.28541	0.5849991	1	3	1	0.15	2264	51.7998	22.24299	32.22062	2.257828	114.0837	109.7706	0.6191335	8.094536	229.2113
9/26/2014 2:57:06 PM	14:57:06	120	A	1	44	62.85714	32132.57	26	38.57143	13500	983.9178	88.87725	87.98944	14.27062	30.21001	237.3065	18.14	91.52148	0.4080009	14.28577	0.5799999	1	3	1	0.15	2261	51.7998	22.29949	32.33562	2.265887	114.0592	110.2152	0.6165057	8.060181	228.2385
9/26/2014 2:57:16 PM	14:57:16	130	A	1	43	61.42857	31402.29	26	38.57143	13500	981.763	88.6569	88.00656	14.2695	29.53	237.527	18.295	91.47741	0.427	14.28573	0.5699997	1	3	1	0.15	2270	52.2002	22.47478	32.4845	2.276499	114.1817	110.5639	0.6111863	7.990633	226.2691
9/26/2014 2:57:51 PM	14:57:51	0	A	1	44	62.85714	32132.57	27	40	14000	981.2982	88.21619	87.99799	14.26987	28.69	237.2183	18.10001	91.43334	0.3939991	14.28437	0.5769997	1	3	1	0.15	2286	51.7998	22.54605	32.47988	2.276115	114.0102	110.2374	0.6149325	8.03961	227.656
9/26/2014 2:58:01 PM	14:58:01	0	A	1	43	61.42857	31402.29	26	37.14286	13000	980.9603	88.17212	87.97235	14.27025	28.31	237.1301	18.10001	91.34521	0.4220009	14.28622	0.5820007	1	3	1	0.15	2284	52.3999	22.78729	32.18025	2.255059	113.9612	109.2082	0.6176813	8.075548	228.6737
9/26/2014 2:58:11 PM	14:58:11	0	A	1	44	62.85714	32132.57	27	38.57143	13500	980.2419	88.17212	87.97235	14.27025	28.31	237.2624	18.31	91.25706	0.4090004	14.28593	0.5760002	1	3	1	0.15	2287	52	22.73026	32.12524	2.251204	114.0347	109.0247	0.6145237	8.034266	227.5047
9/26/2014 2:58:21 PM	14:58:21	0	A	1	44	62.85714	32132.57	27	38.57143	13500	979.2702	87.86362	87.97235	14.26912	28.41	237.3065	17.955	91.38927	0.4169998	14.28488	0.5779991	1	3	1	0.15	2279	52.3999	22.73741	32.33413	2.266021	114.0592	109.5131	0.6154975	8.046997	227.8652
9/26/2014 2:58:31 PM	14:58:31	0	A	1	44	62.85714	32132.57	27	40	14000	981.3828	88.21619	87.94672	14.2695	28.53	237.2183	17.92	91.30114	0.4680004	14.28537	0.5699997	1	3	1	0.15	2280	51.6001	22.40018	32.36951	2.26844	114.0102	109.8742	0.6113039	7.992171	226.3127
9/26/2014 2:58:41 PM	14:58:41	0	A	1	43	61.42857	31402.29	31	51.42857	18000	978.6364	88.03991	87.94672	14.2695	28.53	237.1301	18.07001	91.213	0.4139996	14.2836	0.5760002	1	3	1	0.15	2289	51.2002	22.31432	32.03951	2.245314	113.9612	108.6517	0.6166307	8.061813	228.2847
9/26/2014 2:58:51 PM	14:58:51	0	A	1	43	61.42857	31402.29	28	37.14286	13000	981.1715	88.08398	87.94672	14.2695	28.56	237.2183	18.045	91.30114	0.4449997	14.2849	0.5709991	1	3	1	0.15	2279	51.7998	22.47702	32.25951	2.260731	114.0102	109.4162	0.6118148	7.998851	226.5018
9/26/2014 2:59:01 PM	14:59:01	0	A	1	43	61.42857	31402.29	27	37.14286	13000	980.073	88.48061	87.91248	14.26912	28.60001	237.3065	18.28	91.25706	0.3969994	14.28438	0.573	1	3	1	0.15	2282	52	22.59359	32.23913	2.259363	114.0592	109.6283	0.6134449	8.020164	227.1054
9/26/2014 2:59:11 PM	14:59:11	0	A	1	43	61.42857	31402.29	28	38.57143	13500	982.101	88.48061	87.91248	14.26912	28.60001	237.3506	18.16	91.30114	0.3969994	14.28535	0.5820007	1	3	1	0.15	2274	51.6001	22.4277	32.43913	2.273379	114.0837	110.293	0.6166153	8.061611	228.279
9/26/2014 2:59:21 PM	14:59:21	7	A	2	44	61.42857	31402.29	26	37.14286	13000	980.918	88.56876	87.87833	14.2695	28.735	237.3947	18.09	91.08078	0.4169998	14.28558	0.5739994	1	3	1	0.15	2283	51.3999	22.34264	32.3645	2.268089	114.1082	110.104	0.6135464	8.02149	227.1429
9/26/2014 2:59:31 PM	14:59:31	17	A	2	43	61.42857	31402.29	27	38.57143	13500	980.7067	88.78911	87.87833	14.2695	28.735	237.4829	17.91499	91.30114	0.3780003	14.28497	0.573	1	3	1	0.15	2282	51.7998	22.5066	32.3495	2.267038	114.1572	110.2082	0.6160775	8.054582	228.08
9/26/2014 2:59:41 PM	14:59:41	27	A	2	43	61.42857	31402.29	29	37.14286	13000	980.3264	88.74504	87.86975	14.2695	28.94	237.6152	18.14999	91.16891	0.3969994	14.28692	0.5769997	1	3	1	0.15	2271	52.2002	22.57124	32.4445	2.273696	114.2307	110.493	0.6167452	8.063311	228.3271
9/26/2014 2:59:51 PM	14:59:51	37	A	2	44	62.85714	32132.57	27	38.57143	13500	978.3406	88.56876	87.84409	14.27025	29.47501	237.4388	18.03999	91.25706	0.4249992	14.28207	0.5739994	1	3	1	0.15	2276	51.3999	22.27413	32.37025	2.268373	114.1327	110.1175	0.6139216	8.026395	227.2818
9/26/2014 3:00:01 PM	15:00:01	47	A	2	43	61.42857	31402.29	27	40	14000	986.2838	89.58238	87.85263	14.27025	29.875	237.1742	18.14999	91.25706	0.4130001	14.28568	0.5720005	1	3	1	0.15	2261	51.3999	22.21351	32.17024	2.254358	113.9857	110.159	0.6097105	7.971339	225.7228
9/26/2014 3:00:11 PM	15:00:11	57	A	2	43	61.42857	31402.29	32	45.71429	16000	979.9884	89.31796	87.85263	14.27025	29.875	237.1301	17.77	91.213	0.4589996	14.28821	0.5769997	1	3	1	0.15	2265	52	22.42527	32.23026	2.258563	113.9612	110.1749	0.615121	8.042075	227.7258
9/26/2014 3:00:21 PM	15:00:21	67	A	2	44	62.85714	32132.57	27	37.14286	13000	984.1712	90.02309	87.80991	14.2695	30.765	237.3947	17.89	91.34521	0.3950005	14.28439	0.573	1	3	1	0.15	2251	51.7998	22.20086	32.33951	2.266338	114.1082	111.0375	0.6128345	8.012182	226.8793
9/26/2014 3:00:31 PM	15:00:31	77	A	2	43	61.42857	31402.29	31	51.42857	18000	982.439	89.49424	87.80136	14.26987	31.505	237.3065	18.13	91.25706	0.4190006	14.28361	0.5820007	1	3	1	0.15	2254	51.6001	22.23045	32.21987	2.257895	114.0592	110.2661	0.6139486	8.026748	227.2918
9/26/2014 3:00:41 PM	15:00:41	87	A	2	43	61.42857	31402.29	27	38.57143	13500	982.2277	89.4061	87.80136	14.26987	31.505	237.3506	17.85001	91.30114	0.3649998	14.28484	0.5690002	1	3	1	0.15	2256	52	22.25017	32.04987	2.245981	114.0837	109.636	0.6133999	8.019574	227.0887
9/26/2014 3:00:51 PM	15:00:51	97	A	2	43	61.42857	31402.29	27	41.42857	14500	985.2275	89.93494	87.79279	14.27025	30.72501	237.3065	17.905	91.38927	0.3549995	14.28463	0.5650005	1	3	1	0.15	2242	52	22.19756	32.14525	2.252606	114.0592	110.3214	0.6101727	7.977382	225.8939
9/26/2014 3:01:01 PM	15:01:01	107	A	2	44	62.85714	32132.57	27	42.85714	15000	986.7486	90.64008	87.79279	14.27025	30.72501	237.8357	17.845	91.38927	0.4179993	14.28557	0.5709991	1	3	1	0.15	2224	51.3999	21.85	31.83025	2.230532	114.3532	109.846	0.6133811	8.019328	227.0817
9/26/2014 3:01:11 PM	15:01:11	117	A	2	44	62.85714	32132.57	36	40	14000	981.2137	90.59601	87.79279	14.271	31.21001	237.968	18.08501	91.38927	0.4370003	14.2852	0.5680008	1	3	1	0.15	2229	51.7998	21.98388	32.256	2.260248	114.4267	111.1477	0.6101533	7.977129	225.8867
9/26/2014 3:01:21 PM	15:01:21	127	A	2	43	61.42857	31402.29	26	37.14286	13000	986.3683	90.64008	87.77567	14.271	31.63499	237.968	17.88499	91.52148	0.4249992	14.28437	0.5680008	1	3	1	0.15	2226	51.6001	21.7848	32.09101	2.248687	114.4267	110.6258	0.6100968	7.976389	225.8658
9/26/2014 3:01:35 PM	15:01:35	0	A	2	43	61.42857	31402.29	30	42.85714	15000	987.6359	90.9045	87.79279	14.27025	31.27	238.2326	18	91.6537	0.4370003	14.28633	0.5669994	1	3	1	0.15	2218	51.6001	21.79106	32.03024	2.244547	114.5737	110.6118	0.6094948	7.968518	225.6429
9/26/2014 3:01:45 PM	15:01:45	0	A	2	43	61.42857	31402.29	27	38.57143	13500	988.9879	91.25706	87.78424	14.27062	31.235	238.4972	17.66499	91.6537	0.4190006	14.28638	0.5669994	1	3	1	0.15	2212	51.7998	21.73211	31.97062	2.24031	114.7207	110.654	0.6094958	7.968532	225.6433
9/26/2014 3:01:55 PM	15:01:55	0	A	2	43	61.42857	31402.29	28	40	14000	987.678	90.77229	87.78424	14.27062	31.235	238.4972	17.75999	91.87405	0.4279995	14.28703	0.5750008	1	3	1	0.15	2215	51.6001	21.84581	32.08562	2.248369	114.7207	110.7028	0.6126279	8.009481	226.8029
9/26/2014 3:02:05 PM	15:02:05	0	A	2	43	61.42857	31402.29	27	38.57143	13500	985.6501	90.06715	87.78424	14.271	30.96001	238.3208	17.83	92.00626	0.4349995	14.28582	0.5690002	1	3	1	0.15	2209	52	21.87083	32.431	2.272511	114.6227	111.3616	0.6103855	7.980164	225.9727
9/26/2014 3:02:15 PM	15:02:15	0	A	2	43	61.42857	31402.29	29	41.42857	14500	993.889	90.06715	87.79279	14.27062	30.44501	238.3649	17.995	91.91813	0.4489994	14.28674	0.5629997	1	3	1	0.15	2198	51.6001	21.59456	32.22062	2.257828	114.6472	110.663	0.607231	7.938921	224.8048
9/26/2014 3:02:25 PM	15:02:25	0	A	2	44	61.42857	31402.29	33	47.14286	16500	988.3964	89.58238	87.79279	14.27062	30.44501	238.3208	17.87	92.00626	0.4050007	14.28584	0.566	1	3	1	0.15	2208	51.3999	21.60865	32.18562	2.255375	114.6962	110.2075	0.6087492	7.958771	225.3669
9/26/2014 3:02:35 PM	15:02:35	0	A	2	44	61.42857	31402.29	30	42.85714	15000	999.1281	90.28751	87.79279	14.27062	30.42	238.409	17.69501	92.09441	0.4309998	14.28533	0.5429993	1	3	1	0.15	2175	51.7998	21.3686	31.84562	2.231551	114.6717	109.5577	0.5935082	7.759511	219.7245
9/26/2014 3:02:45 PM	15:02:45	0	A	2	43	62.85714	32132.57	31	44.28571	15500	996.3395	91.12485	87.80991	14.271	30.41499	239.247	17.67	92.13847	0.4319992	14.28694	0.5540009	1	3	1	0.15	2165	51.3999	21.18783	32.066	2.246934	115.1372	110.8799	0.606025	7.923155	224.3584
9/26/2014 3:02:55 PM	15:02:55	0	A	2	44	62.85714	32132.57	25	35.71429	12500	1002.424	92.13847	87.80991	14.271	30.41499	239.6439	17.825	92.13847	0.4510002	14.28491	0.5629997	1	3	1	0.15	2155	52	21.25405	31.67099	2.219255	115.3577	110.2509	0.6070818	7.936971	224.7496
9/26/2014 3:03:05 PM	15:03:05	0	A	2	43	62.85714	32132.57	27	38.57143	13500	1004.747	93.01989	87.827	14.271	30.41	240.0408	17.78999	92.13847	0.3959999	14.28697	0.5550003	1	3	1	0.15	2140	51.7998	21.1061	31.881	2.233971	115.5782	111.576	0.6027693	7.880589	223.1531
9/26/2014 3:03:15 PM	15:03:15	0	A	2	43	61.42857	31402.29	27	44.28571	15500	999.2126	93.24023	87.80991	14.271	30.33501	240.57	17.755	92.18254	0.4249992	14.28528	0.5599995	1	3	1	0.15	2147	51.6001	21.09351	31.96601	2.239928	115.8722	112.0172	0.6054465	7.91559	224.1442
9/26/2014 3:03:25 PM	15:03:25	0	A	2	43	61.42857	31402.29	27	40	14000	997.3958	92.31477	87.80991	14.271	30.33501	240.3495	17.82001	92.31477	0.4400005	14.28643	0.5680008	1	3	1	0.15	2162	51.6001	21.24088	32.07599	2.247635	115.7497	111.7432	0.608611	7.956964	225.3158
9/26/2014 3:03:35 PM	15:03:35	5	A	3	44	61.42857	31402.29	30	42.85714	15000	1002.888	92.53511	87.827	14.27062	30.075	240.3495	17.69501	92.44697	0.3889999	14.28624	0.5529995	1	3	1	0.15	2159	51.3999	21.04701	31.94062	2.238208	115.7497	111.443	0.6020381	7.871031	222.8824
9/26/2014 3:03:45 PM	15:03:45	15	A	3	43	61.42857	31402.29	26	37.14286	13000	994.2693	91.56557	87.827	14.27062	30.075	240.3495	17.98	92.31477	0.4729996	14.28512	0.5680008	1	3	1	0.15	2173	51.7998	21.43157	32.10062	2.24942	115.7497	111.3064	0.6096598	7.970676	225.704
9/26/2014 3:03:55 PM	15:03:55	25	A	3	43	61.42857	31402.29	27	41.42857	14500	994.734	90.9045	87.85263	14.27062	29.965	240.0408	17.595	92.27069	0.4150009	14.2875	0.5610008	1	3	1	0.15	2186	51.3999	21.39334	32.06562	2.246967	115.5782	110.7278	0.6075783	7.943463	224.9334
9/26/2014 3:04:05 PM	15:04:05	35	A	3	43	61.42857	31402.29	30	41.42857	14500	995.7902	91.38927	87.827	14.26987	29.86501	240.0849	17.955	92.31477	0.4589996	14.28747	0.5639992	1	3	1	0.15	2179	51.6001	21.49075	32.30488	2.263852	115.6027	111.8737	0.6080915	7.950173	225.1234
9/26/2014 3:04:15 PM	15:04:15	45	A	3	44	62.85714	32132.57	31	45.71429	16000	996.2128	90.55194	87.827	14.26987	29.86501	240.3054	17.87	92.53511	0.4319992	14.28444	0.5699997	1	3	1	0.15	2181	51.7998	21.51048	32.38488	2.269458	115.7252	111.5555	0.6105708	7.982587	226.0413
9/26/2014 3:04:25 PM	15:04:25	55	A	3	43	61.42857	31402.29	30	42.85714	15000	993.8044	90.64008	87.85263	14.27062	29.88	240.1731	17.73	92.4029	0.368	14.28584	0.5680008	1	3	1	0.15	2185	51.3999	21.54992	32.39062	2.269741	115.6517	111.6306	0.6096411	7.970432	225.6971
9/26/2014 3:04:35 PM	15:04:35	65	A	3	44	62.85714	32132.57	31	44.28571	15500	994.903	90.59601	87.84409	14.27025	30.075	240.3054	17.78999	92.4029	0.4080009	14.28507	0.5650005	1	3	1	0.15	2186	52.2002	21.64311	32.26524	2.261015	115.7252	111.1842	0.6079871	7.948808	225.0848
9/26/2014 3:04:45 PM	15:04:45	75	A	3	43	61.42857	31402.29	31	37.14286	13000	990.3821	89.75867	87.84409	14.27025	30.075	239.9967	17.84	92.35883	0.4540005	14.28543	0.566	1	3	1	0.15	2199	51.3999	21.52057	32.12524	2.251204	115.5537	110.1315	0.6085535	7.956213	225.2945
9/26/2014 3:04:55 PM	15:04:55	85	A	3	43	61.42857	31402.29	28	44.28571	15500	996.8888	90.50787	87.86121	14.27062	30.17999	240.0408	17.795	92.53511	0.4669991	14.2858	0.5620003	1	3	1	0.15	2188	52	21.57951	32.15063	2.252924	115.5782	110.7363	0.6063353	7.927212	224.4733
9/26/2014 3:05:05 PM	15:05:05	95	A	3	44	62.85714	32132.57	27	38.57143	13500	993.6778	90.41972	87.87833	14.27062	29.8	240.1731	18.03	92.4029	0.4540005	14.28562	0.5669994	1	3	1	0.15	2190	51.6001	21.51596	32.15562	2.253273	115.6517	110.6915	0.6091011	7.963371	225.4972
9/26/2014 3:05:15 PM	15:05:15	105	A	3	44	62.85714	32132.57	26	37.14286	13000	1001.832	91.30114	87.86121	14.27025	29.17	240.7464	17.64	92.44697	0.3980007	14.28615	0.5569992	1	3	1	0.15	2175	51.7998	21.4513	32.16525	2.254008	115.9702	111.3417	0.6037021	7.892785	223.4984
9/26/2014 3:05:25 PM	15:05:25	115	A	3	44	61.42857	31402.29	31	44.28571	15500	1001.452	91.69777	87.86121	14.27025	29.17	241.1433	18.035	92.57918	0.4449997	14.28648	0.5599995	1	3	1	0.15	2180	52	21.58371	32.05025	2.245949	116.1907	111.4164	0.6047056	7.905906	223.8699
9/26/2014 3:05:35 PM	15:05:35	125	A	3	43	61.42857	31402.29	30	38.57143	13500	992.7482	90.50787	87.87833	14.27025	28.77	240.8787	17.995	92.57918	0.448	14.28521	0.5610008	1	3	1	0.15	2207	51.6001	21.7669	32.32524	2.265219	116.0437	111.323	0.6057622	7.919719	224.2611
9/26/2014 3:06:32 PM	15:06:32	0	A	3	43	62.85714	32132.57	30	42.85714	15000	990.0019	88.56876	87.89539	14.26987	28.655	239.9085	17.985	92.53511	0.4389992	14.28643	0.5639992	1	3	1	0.15	2230	51.7998	21.99374	32.48988	2.276816	115.5047	110.5173	0.6052662	7.913235	224.0775
9/26/2014 3:06:42 PM	15:06:42	0	A	3	47	67.14285	34323.43	29	42.85714	15000	1050.379	89.4061	87.89539	14.26987	28.655	241.5402	21.75	92.44697	0.5620003	14.29149	0.7210007	1	3	1	0.15	2447	55.7998	25.99758	36.34988	2.547316	116.4112	123.3991	0.6867959	8.979152	254.2608
9/26/2014 3:06:52 PM	15:06:52	0	A	3	47	67.14285	34323.43	31	44.28571	15500	1007.029	88.74504	87.91248	14.2695	28.565	249.9636	22.02	92.4029	0.6210003	14.28912	0.7099991	1	3	1	0.15	2667	62	31.48335	36.3645	2.548408	121.0909	122.9693	0.6824732	8.922636	252.6605
9/26/2014 3:07:02 PM	15:07:02	0	A	3	46	64.28571	32862.86	34	48.57143	17000	987.678	88.96539	87.91248	14.26987	28.86	253.2271	20.295	92.49104	0.5480003	14.28773	0.6410007	1	3	1	0.15	2619	59.3999	29.62016	34.79987	2.438695	122.904	118.2657	0.6495532	8.492241	240.4731
9/26/2014 3:07:12 PM	15:07:12	0	A	3	46	65.71429	33593.14	30	42.85714	15000	997.4804	88.92133	87.91248	14.26987	28.86	252.2128	20.46001	92.53511	0.5429993	14.29004	0.6389999	1	3	1	0.15	2546	57	27.63118	34.52488	2.419424	122.3404	117.364	0.646553	8.453016	239.3624
9/26/2014 3:07:22 PM	15:07:22	0	A	3	45	64.28571	32862.86	29	41.42857	14500	1000.438	89.31796	87.91248	14.2695	29.00999	251.9482	20.21001	92.44697	0.5359993	14.2854	0.6329994	1	3	1	0.15	2522	57.6001	27.65888	34.39951	2.410702	122.1935	117.2506	0.6434494	8.41244	238.2134
9/26/2014 3:07:32 PM	15:07:32	0	A	3	45	64.28571	32862.86	30	42.85714	15000	1002.424	90.41972	87.9296	14.26987	29.075	252.5215	20.14	92.31477	0.5259991	14.28946	0.6429996	1	3	1	0.15	2516	57	27.2097	34.50488	2.418022	122.5119	118.367	0.6486941	8.481009	240.155
9/26/2014 3:07:42 PM	15:07:42	0	A	3	46	65.71429	33593.14	30	42.85714	15000	1003.438	90.86044	87.9296	14.26987	29.075	252.8743	20.30499	92.53511	0.5020008	14.28831	0.6480007	1	3	1	0.15	2530	57.2002	27.55397	34.87988	2.444301	122.708	119.8708	0.6510322	8.511579	241.0207
9/26/2014 3:07:52 PM	15:07:52	0	A	3	46	65.71429	33593.14	29	42.85714	15000	1000.311	90.77229	87.92105	14.26912	29.64	253.0507	20.44501	92.44697	0.4810009	14.28647	0.6429996	1	3	1	0.15	2536	57.3999	27.81241	34.55912	2.421951	122.806	118.7964	0.648563	8.479296	240.1065
9/26/2014 3:08:02 PM	15:08:02	0	A	3	46	65.71429	33593.14	29	42.85714	15000	1001.283	90.59601	87.9296	14.26987	30.19	253.0066	20.435	92.4029	0.4960003	14.28802	0.6340008	1	3	1	0.15	2536	57	27.52265	34.86988	2.443601	122.7815	119.6505	0.6440457	8.420237	238.4341
9/26/2014 3:08:12 PM	15:08:12	0	A	3	46	65.71429	33593.14	29	41.42857	14500	1007.156	91.52148	87.9296	14.26987	30.19	254.1533	20.34	92.49104	0.5289993	14.28729	0.6350002	1	3	1	0.15	2528	57.2002	27.53219	34.45487	2.414518	123.4185	118.9916	0.6445032	8.426219	238.6035
9/26/2014 3:08:22 PM	15:08:22	0	A	3	46	65.71429	33593.14	30	41.42857	14500	1003.269	91.47741	87.93817	14.2695	30.35001	254.5943	20.16	92.53511	0.5359993	14.28876	0.6429996	1	3	1	0.15	2541	57	27.67377	34.4295	2.412804	123.6635	118.882	0.6510545	8.511869	241.0289
9/26/2014 3:08:32 PM	15:08:32	0	A	3	46	65.71429	33593.14	30	44.28571	15500	997.7761	90.55194	87.94672	14.2695	30.50999	254.3297	20.355	92.66733	0.5289993	14.28923	0.6439991	1	3	1	0.15	2549	57	27.66374	34.41949	2.412102	123.5165	118.1918	0.6489798	8.484745	240.2608
9/26/2014 3:08:42 PM	15:08:42	0	A	3	46	65.71429	33593.14	34	42.85714	15000	1000.311	90.02309	87.94672	14.2695	30.50999	254.5943	20.2	92.66733	0.5020008	14.28844	0.6439991	1	3	1	0.15	2542	57.6001	27.78132	34.47951	2.416308	123.6635	118.0069	0.6489498	8.484353	240.2497
9/26/2014 3:08:52 PM	15:08:52	0	A	3	46	65.71429	33593.14	29	42.85714	15000	1001.367	90.24344	87.97235	14.2695	30.87	254.6384	20.125	92.84361	0.4810009	14.28735	0.6420002	1	3	1	0.15	2537	57.7998	27.91985	34.72951	2.433828	123.688	118.9577	0.64781	8.469451	239.8277
9/26/2014 3:09:02 PM	15:09:02	10	B	4	46	65.71429	33593.14	29	41.42857	14500	1001.283	90.64008	87.98087	14.26987	30.995	254.8589	20.315	92.79954	0.5230007	14.28838	0.6410007	1	3	1	0.15	2541	57.3999	27.86725	34.63488	2.427133	123.8105	118.9373	0.6473796	8.463824	239.6684
9/26/2014 3:09:12 PM	15:09:12	20	B	4	46	65.71429	33593.14	30	42.85714	15000	1000.311	90.59601	87.98087	14.26987	30.995	254.903	20.41	92.84361	0.5100002	14.2882	0.6389999	1	3	1	0.15	2549	57	27.7609	34.55488	2.421526	123.835	118.6516	0.6488743	8.483367	240.2218
9/26/2014 3:09:22 PM	15:09:22	30	B	4	46	65.71429	33593.14	30	42.85714	15000	1000.86	90.77229	87.98944	14.2695	30.81	254.9912	20.14	93.06396	0.5429993	14.28757	0.6439991	1	3	1	0.15	2550	57.3999	27.86875	34.5495	2.421213	123.884	118.7629	0.648724	8.4814	240.1661
9/26/2014 3:09:32 PM	15:09:32	40	B	4	46	65.71429	33593.14	29	42.85714	15000	1007.747	91.69777	87.98087	14.26912	30.625	255.5645	20.37	93.10803	0.4710007	14.28907	0.6410007	1	3	1	0.15	2534	56.7998	27.40436	34.44413	2.413892	124.2025	119.0884	0.6456939	8.441784	239.0443
9/26/2014 3:09:42 PM	15:09:42	50	B	4	46	65.71429	33593.14	32	47.14286	16500	1005.762	92.7114	87.98087	14.26912	30.625	256.1819	20.39	93.06396	0.5259991	14.28716	0.6289997	1	3	1	0.15	2534	57	27.50095	34.36413	2.408286	124.5455	119.5532	0.6416301	8.388655	237.5399
9/26/2014 3:09:52 PM	15:09:52	60	B	4	46	65.71429	33593.14	29	41.42857	14500	997.1846	91.213	87.98944	14.26912	31.375	255.8732	20.34	93.1521	0.5450001	14.28712	0.6359997	1	3	1	0.15	2538	57.2002	27.73761	34.69413	2.431412	124.374	119.5395	0.6446338	8.427925	238.6519
9/26/2014 3:10:02 PM	15:10:02	70	B	4	46	65.71429	33593.14	31	42.85714	15000	997.2268	90.11123	87.99799	14.26912	31.625	255.6527	20.56	93.19617	0.5209999	14.2886	0.6509991	1	3	1	0.15	2548	57.2002	27.75001	34.80413	2.439121	124.2515	119.1024	0.6521623	8.526353	241.439
9/26/2014 3:10:12 PM	15:10:12	80	B	4	46	65.71429	33593.14	32	50	17500	996.9311	89.71458	87.99799	14.26912	31.625	255.344	20.565	93.1521	0.5300007	14.28777	0.6469994	1	3	1	0.15	2558	57.7998	28.15096	34.73412	2.434215	124.08	118.598	0.6501701	8.500307	240.7015
9/26/2014 3:10:22 PM	15:10:22	90	B	4	46	65.71429	33593.14	29	41.42857	14500	997.6915	89.58238	87.98944	14.26912	30.74001	255.5645	20.35001	93.10803	0.5930004	14.28846	0.6410007	1	3	1	0.15	2548	57.6001	27.94402	34.55912	2.421951	124.2025	117.9491	0.6477101	8.468145	239.7908
9/26/2014 3:10:32 PM	15:10:32	100	B	4	46	65.71429	33593.14	30	42.85714	15000	1003.142	90.28751	88.02365	14.26912	30.11	255.6086	20.235	93.01989	0.5400009	14.28813	0.6359997	1	3	1	0.15	2545	56.7998	27.62033	34.41413	2.41179	124.227	117.9896	0.6447008	8.428802	238.6767
9/26/2014 3:10:42 PM	15:10:42	110	B	4	46	65.71429	33593.14	31	44.28571	15500	1004.24	90.9045	88.02365	14.26912	30.11	256.0496	20.175	93.19617	0.5510006	14.28846	0.6350002	1	3	1	0.15	2539	57.2002	27.74854	34.70412	2.432113	124.472	119.3514	0.6441287	8.421322	238.4649
9/26/2014 3:10:52 PM	15:10:52	120	B	4	46	65.71429	33593.14	29	41.42857	14500	1011.001	92.88767	88.00656	14.2695	30.74001	256.8434	20.265	93.19617	0.5119991	14.28717	0.6350002	1	3	1	0.15	2526	56.3999	27.02946	34.21451	2.397737	124.913	119.195	0.6410496	8.381065	237.325
9/26/2014 3:11:02 PM	15:11:02	130	B	4	46	65.71429	33593.14	33	41.42857	14500	1008.001	93.24023	88.01511	14.26912	31.295	257.3286	20.28999	93.28431	0.5919991	14.28886	0.6369991	1	3	1	0.15	2529	57.3999	27.54308	34.43913	2.413542	125.1825	120.1697	0.6450853	8.433828	238.819
9/26/2014 3:11:32 PM	15:11:32	0	B	4	46	65.71429	33593.14	29	41.42857	14500	999.0013	91.6537	88.02365	14.26912	31.23	256.7112	20.39	93.5928	0.5499992	14.28676	0.6380005	1	3	1	0.15	2537	57.2002	27.53351	34.82912	2.440873	124.8395	120.2822	0.6453637	8.437469	238.9221
9/26/2014 3:11:42 PM	15:11:42	5	B	5	46	65.71429	33593.14	29	42.85714	15000	997.6915	90.94857	88.02365	14.26912	31.23	256.623	20.46001	93.50466	0.4979992	14.28897	0.6429996	1	3	1	0.15	2542	58.3999	28.26532	34.70412	2.432113	124.7905	119.3828	0.6499806	8.497829	240.6313
9/26/2014 3:11:52 PM	15:11:52	15	B	5	46	65.71429	33593.14	30	42.85714	15000	999.9732	91.47741	88.02365	14.26912	31.10001	256.3583	20.10001	93.50466	0.5839996	14.2881	0.6410007	1	3	1	0.15	2533	56.7998	27.39355	34.58413	2.423704	124.6435	119.3782	0.642895	8.405192	238.0081
9/26/2014 3:12:02 PM	15:12:02	25	B	5	46	65.71429	33593.14	29	41.42857	14500	997.2691	91.16891	88.04929	14.26875	31.735	256.3583	20.52499	93.50466	0.4939995	14.28938	0.6509991	1	3	1	0.15	2540	57.6001	27.75946	34.68374	2.430749	124.6435	119.4781	0.6500019	8.498108	240.6392
9/26/2014 3:12:12 PM	15:12:12	35	B	5	46	65.71429	33593.14	31	44.28571	15500	1001.367	91.12485	88.04929	14.26875	31.735	256.4466	20.315	93.5928	0.5470009	14.28617	0.6310005	1	3	1	0.15	2534	58.2002	27.98342	34.39375	2.410425	124.6925	118.5229	0.6417845	8.390674	237.597
9/26/2014 3:12:22 PM	15:12:22	45	B	5	46	65.71429	33593.14	29	41.42857	14500	1006.057	92.27069	88.05783	14.26875	31.715	256.8876	20.23	93.63687	0.5510006	14.28617	0.6289997	1	3	1	0.15	2530	56.7998	27.3611	34.28375	2.402716	124.9375	118.9851	0.6407579	8.377252	237.2169
9/26/2014 3:12:32 PM	15:12:32	55	B	5	46	65.71429	33593.14	29	42.85714	15000	1008.888	92.44697	88.06641	14.26912	31.87	257.1081	20.03999	93.72502	0.5289993	14.28676	0.625	1	3	1	0.15	2533	56.6001	27.29723	34.58913	2.424054	125.0601	120.0847	0.6386961	8.350295	236.4536
9/26/2014 3:12:42 PM	15:12:42	65	B	5	46	65.71429	33593.14	29	42.85714	15000	1007.071	91.60963	88.06641	14.26912	31.87	256.8876	19.91499	93.76909	0.552	14.28926	0.6270008	1	3	1	0.15	2532	56.6001	27.38273	34.29412	2.403379	124.9375	118.5458	0.639739	8.363931	236.8398
9/26/2014 3:12:52 PM	15:12:52	75	B	5	46	65.71429	33593.14	28	40	14000	1009.902	92.53511	88.07495	14.26875	31.675	257.505	20.125	93.85723	0.5419998	14.28725	0.6329994	1	3	1	0.15	2509	56.7998	27.03859	34.49875	2.417783	125.2805	119.8617	0.6426972	8.402606	237.9349
9/26/2014 3:13:02 PM	15:13:02	85	B	5	45	65.71429	33593.14	35	50	17500	1010.198	92.22661	88.09204	14.26912	31.33501	257.6814	20.14	93.76909	0.5330009	14.28785	0.6229992	1	3	1	0.15	2524	57	27.48863	34.51913	2.419148	125.3786	119.7043	0.6376588	8.336735	236.0696
9/26/2014 3:13:12 PM	15:13:12	95	B	5	46	65.71429	33593.14	29	41.42857	14500	1008.677	92.75546	88.09204	14.26912	31.33501	257.7696	20.215	93.85723	0.5470009	14.28716	0.6210003	1	3	1	0.15	2514	56.3999	27.09247	34.46413	2.415294	125.4276	119.9049	0.636575	8.322565	235.6684
9/26/2014 3:13:22 PM	15:13:22	105	B	5	45	65.71429	33593.14	29	41.42857	14500	1007.367	92.53511	88.10916	14.26838	31.625	257.5932	20.035	93.68095	0.5629997	14.2863	0.6189995	1	3	1	0.15	2529	56.6001	27.25412	34.33338	2.406257	125.3296	119.3351	0.6371814	8.330492	235.8929
9/26/2014 3:13:32 PM	15:13:32	115	B	5	46	65.71429	33593.14	31	44.28571	15500	1004.24	91.6537	88.10059	14.26838	30.715	257.5491	19.91	93.76909	0.5149994	14.28691	0.6149998	1	3	1	0.15	2531	58.3999	28.14301	34.06838	2.387685	125.305	117.8577	0.6335412	8.282901	234.5452
9/26/2014 3:13:42 PM	15:13:42	125	B	5	46	64.28571	32862.86	30	42.85714	15000	1009.226	92.22661	88.10059	14.26838	30.715	257.5932	20.14	93.81316	0.5349998	14.28854	0.6219997	1	3	1	0.15	2519	57	27.43417	34.20838	2.397496	125.3296	118.7146	0.6371645	8.330272	235.8866
9/26/2014 3:13:55 PM	15:13:55	0	B	5	46	65.71429	33593.14	29	41.42857	14500	1002.593	91.78591	88.12625	14.26838	31.13499	257.5491	20.015	93.9013	0.5049992	14.28742	0.632	1	3	1	0.15	2534	57	27.50095	34.38837	2.410111	125.305	118.9786	0.642141	8.395336	237.729
9/26/2014 3:14:05 PM	15:14:05	0	B	5	46	65.71429	33593.14	29	41.42857	14500	1005.804	92.79954	88.12625	14.26838	30.705	257.7696	20.16499	93.98943	0.5610008	14.28847	0.6270008	1	3	1	0.15	2538	56.2002	27.15787	34.54837	2.421325	125.4276	120.2114	0.6365132	8.321757	235.6455
9/26/2014 3:14:15 PM	15:14:15	0	B	5	46	65.71429	33593.14	30	42.85714	15000	1000.353	92.09441	88.1348	14.26875	30.72501	257.4168	20.33501	94.16573	0.5760002	14.2891	0.6200008	1	3	1	0.15	2538	57.2002	27.73761	34.42375	2.412527	125.2316	119.3083	0.6359438	8.314312	235.4347
9/26/2014 3:14:25 PM	15:14:25	0	B	5	45	65.71429	33593.14	35	50	17500	999.0013	91.47741	88.1348	14.26875	30.72501	256.9758	20.19	94.12166	0.4909992	14.28816	0.625	1	3	1	0.15	2543	56.7998	27.50169	34.39876	2.410776	124.9865	118.7896	0.6394946	8.360736	236.7493
9/26/2014 3:14:35 PM	15:14:35	0	B	5	46	65.71429	33593.14	29	41.42857	14500	1000.311	91.08078	88.15192	14.26875	30.83501	257.1963	20.395	94.20979	0.5300007	14.28747	0.6289997	1	3	1	0.15	2532	56.7998	27.38273	34.50375	2.418134	125.109	118.8426	0.6404628	8.373392	237.1077
9/26/2014 3:14:45 PM	15:14:45	0	B	5	45	65.71429	33593.14	31	44.28571	15500	1002.381	91.56557	88.16043	14.26875	30.655	256.9758	20.215	94.25386	0.6079998	14.28913	0.6310005	1	3	1	0.15	2534	57.2002	27.59754	34.80375	2.439159	124.9865	120.1418	0.6414713	8.38658	237.4811
9/26/2014 3:14:55 PM	15:14:55	0	B	5	46	65.71429	33593.14	30	42.85714	15000	1007.114	91.91813	88.16043	14.26875	30.655	257.064	20.19	94.342	0.4659996	14.28678	0.6240005	1	3	1	0.15	2525	57	27.49952	34.27874	2.402365	125.0355	118.7185	0.6413636	8.385171	237.4412
9/26/2014 3:15:05 PM	15:15:05	4	B	6	46	65.71429	33593.14	30	42.85714	15000	1011.972	92.31477	88.16901	14.26838	30.38499	257.6373	20.19501	94.38609	0.5139999	14.2889	0.6289997	1	3	1	0.15	2522	56.7998	27.27458	34.38837	2.410111	125.3541	119.3547	0.6403911	8.372457	237.0812
9/26/2014 3:15:15 PM	15:15:15	14	B	6	46	65.71429	33593.14	30	42.85714	15000	998.0719	92.00626	88.18607	14.26838	29.84	257.7255	20.41499	94.342	0.5550003	14.29132	0.6380005	1	3	1	0.15	2541	58	28.06072	34.59838	2.424829	125.4031	119.806	0.6440217	8.419923	238.4253
9/26/2014 3:15:25 PM	15:15:25	24	B	6	46	65.71429	33593.14	31	44.28571	15500	1002.55	91.30114	88.18607	14.26838	29.84	257.1963	20.67999	94.47422	0.5109997	14.28923	0.6410007	1	3	1	0.15	2539	56.7998	27.45843	34.68337	2.430786	125.109	119.574	0.642868	8.40484	237.9982
9/26/2014 3:15:35 PM	15:15:35	34	B	6	46	65.71429	33593.14	30	42.85714	15000	1001.198	90.99264	88.22031	14.26875	29.85001	256.7112	20.53	94.6505	0.5879993	14.28805	0.6359997	1	3	1	0.15	2547	57.3999	27.83596	34.69875	2.4318	124.8395	119.4	0.6437458	8.416315	238.3231
9/26/2014 3:15:45 PM	15:15:45	44	B	6	46	65.71429	33593.14	32	45.71429	16000	997.5649	90.55194	88.2374	14.268	29.685	256.226	20.38499	94.69456	0.5849991	14.28813	0.6439991	1	3	1	0.15	2549	57.3999	27.85782	34.563	2.422414	124.57	118.6605	0.64779	8.46919	239.8203
9/26/2014 3:15:55 PM	15:15:55	54	B	6	46	65.71429	33593.14	30	42.85714	15000	997.2268	89.84681	88.2374	14.268	29.685	255.8291	20.16499	94.69456	0.6019993	14.28896	0.6369991	1	3	1	0.15	2553	57.2002	27.70715	34.668	2.429772	124.3495	118.4916	0.6442572	8.423002	238.5125
9/26/2014 3:16:05 PM	15:16:05	64	B	6	45	64.28571	32862.86	29	41.42857	14500	1002.593	90.33158	88.25449	14.268	29.62	255.5645	20.46001	94.69456	0.5380001	14.28914	0.6289997	1	3	1	0.15	2542	58	28.07177	34.608	2.425567	124.2025	118.6466	0.6402253	8.370288	237.0198
9/26/2014 3:16:15 PM	15:16:15	74	B	6	46	65.71429	33593.14	34	48.57143	17000	1012.141	91.9622	88.25449	14.268	29.62	256.226	20.045	94.56236	0.5300007	14.28542	0.6200008	1	3	1	0.15	2514	57	27.18806	33.968	2.380712	124.57	117.7556	0.6356007	8.309827	235.3077
9/26/2014 3:16:25 PM	15:16:25	84	B	6	46	65.71429	33593.14	30	41.42857	14500	1004.283	92.13847	88.28873	14.26838	29.685	257.0199	20.155	94.69456	0.5799999	14.28887	0.6240005	1	3	1	0.15	2533	56.2002	27.10436	34.74837	2.435342	125.011	120.3775	0.6407136	8.376672	237.2005
9/26/2014 3:16:35 PM	15:16:35	94	B	6	46	65.71429	33593.14	33	47.14286	16500	1000.691	91.78591	88.29724	14.268	29.64999	256.5348	20.235	94.73865	0.5389996	14.28907	0.6359997	1	3	1	0.15	2538	56.6001	27.44762	34.80799	2.439584	124.7415	120.3182	0.6437434	8.416285	238.3222
9/26/2014 3:16:45 PM	15:16:45	104	B	6	46	65.71429	33593.14	30	42.85714	15000	1003.015	91.52148	88.29724	14.268	29.64999	256.5789	20.255	94.6505	0.5259991	14.28947	0.6410007	1	3	1	0.15	2544	57.2002	27.80318	34.753	2.43573	124.766	119.9552	0.6463059	8.449786	239.2709
9/26/2014 3:16:55 PM	15:16:55	114	B	6	46	65.71429	33593.14	29	41.42857	14500	1002.804	91.60963	88.31436	14.268	29.66	256.3142	20.185	94.51829	0.5240002	14.28733	0.6229992	1	3	1	0.15	2540	57.6001	27.85628	34.62299	2.426619	124.619	119.6048	0.6367117	8.324352	235.719
9/26/2014 3:17:05 PM	15:17:05	124	B	6	46	65.71429	33593.14	30	42.85714	15000	1002.593	91.213	88.34857	14.26763	29.675	256.3142	20.125	94.51829	0.5529995	14.2871	0.6280003	1	3	1	0.15	2536	57.2002	27.71575	34.59262	2.424553	124.619	119.2284	0.6417905	8.390752	237.5992
9/26/2014 3:17:15 PM	15:17:15	134	B	6	46	65.71429	33593.14	30	42.85714	15000	1004.283	91.12485	88.37421	14.26763	29.72501	256.4025	20.14	94.60643	0.5650005	14.28617	0.6280003	1	3	1	0.15	2536	56.3999	27.23289	34.63263	2.427358	124.668	119.2929	0.6396825	8.363193	236.8188
9/26/2014 3:17:25 PM	15:17:25	0	B	6	46	65.71429	33593.14	30	42.85714	15000	1004.832	91.56557	88.37421	14.26763	29.72501	256.4907	20.39	94.69456	0.5550003	14.28685	0.6350002	1	3	1	0.15	2546	56.3999	27.34028	34.58763	2.424204	124.717	119.4637	0.6437119	8.415874	238.3106
9/26/2014 3:17:35 PM	15:17:35	0	B	6	46	65.71429	33593.14	30	42.85714	15000	998.4099	90.59601	88.38275	14.268	29.875	256.3142	20.355	94.51829	0.5489998	14.2895	0.632	1	3	1	0.15	2548	57.6001	27.94402	34.833	2.441337	124.619	119.5483	0.6423558	8.398143	237.8085
9/26/2014 3:17:45 PM	15:17:45	0	B	6	46	65.71429	33593.14	30	42.85714	15000	1005.677	90.81635	88.39127	14.268	30.42999	256.3142	20.19	94.78271	0.5259991	14.28867	0.632	1	3	1	0.15	2544	56.3999	27.3188	34.488	2.417157	124.619	118.61	0.6416728	8.389214	237.5557
9/26/2014 3:17:55 PM	15:17:55	0	B	6	46	65.71429	33593.14	35	50	17500	1004.198	91.9622	88.39127	14.268	30.42999	256.4907	20.33	94.69456	0.5149994	14.28509	0.6380005	1	3	1	0.15	2538	57	27.54436	34.673	2.430123	124.717	120.0151	0.6426818	8.402405	237.9292
9/26/2014 3:18:05 PM	15:18:05	0	B	6	46	65.71429	33593.14	30	42.85714	15000	1000.818	91.30114	88.39984	14.26763	30.59	256.1378	20.45	94.73865	0.5130005	14.28638	0.6389999	1	3	1	0.15	2543	56.3999	27.21137	34.38762	2.410185	124.521	118.6373	0.6451929	8.435235	238.8589
9/26/2014 3:18:15 PM	15:18:15	0	B	6	46	65.71429	33593.14	30	42.85714	15000	997.0156	90.72821	88.43405	14.268	30.485	255.9173	20.39999	94.6505	0.559	14.28871	0.6350002	1	3	1	0.15	2557	56.3999	27.4584	34.73299	2.434328	124.3985	119.3259	0.6432804	8.410231	238.1508
9/26/2014 3:18:25 PM	15:18:25	10	B	7	46	65.71429	33593.14	30	42.85714	15000	1009.48	91.74184	88.43405	14.268	30.485	256.2701	20.355	94.47422	0.5820007	14.28582	0.6240005	1	3	1	0.15	2533	56.2002	27.00781	34.333	2.406294	124.5945	118.773	0.6377394	8.337788	236.0995
9/26/2014 3:18:35 PM	15:18:35	20	B	7	46	65.71429	33593.14	30	42.85714	15000	1005.043	91.74184	88.41696	14.26875	30.3	256.623	20.38	94.69456	0.5569992	14.28798	0.6399994	1	3	1	0.15	2529	57.7998	27.83181	34.53876	2.420587	124.7905	119.4248	0.6457503	8.442522	239.0652
9/26/2014 3:18:45 PM	15:18:45	30	B	7	46	65.71429	33593.14	30	42.85714	15000	1004.24	90.99264	88.41696	14.26875	30.3	256.5789	20.08	94.78271	0.5240002	14.28729	0.6259995	1	3	1	0.15	2543	56.6001	27.50169	34.47876	2.416383	124.766	118.7002	0.639097	8.355538	236.6021
9/26/2014 3:18:55 PM	15:18:55	40	B	7	46	65.71429	33593.14	34	42.85714	15000	1002.846	90.55194	88.43405	14.268	29.815	256.5789	20.17	94.78271	0.5769997	14.28759	0.6280003	1	3	1	0.15	2550	57.3999	27.86875	34.53801	2.420662	124.766	118.581	0.638607	8.349132	236.4207
9/26/2014 3:19:05 PM	15:19:05	50	B	7	46	65.71429	33593.14	30	44.28571	15500	997.3113	90.11123	88.45969	14.268	29.67	256.1378	20.39999	94.60643	0.5030003	14.28716	0.6399994	1	3	1	0.15	2559	56.7998	27.67473	34.68299	2.430824	124.521	118.7276	0.6437799	8.416761	238.3357
9/26/2014 3:19:15 PM	15:19:15	60	B	7	46	65.71429	33593.14	31	44.28571	15500	999.6774	89.67052	88.48535	14.26763	29.63499	255.5645	20.47501	94.56236	0.4920006	14.28739	0.6389999	1	3	1	0.15	2558	57.3999	27.85892	34.70262	2.432263	124.2025	118.4785	0.6463021	8.449738	239.2695
9/26/2014 3:19:25 PM	15:19:25	70	B	7	46	65.71429	33593.14	30	42.85714	15000	998.5366	89.58238	88.48535	14.26763	29.63499	255.6527	20.23	94.51829	0.5529995	14.28786	0.6350002	1	3	1	0.15	2541	57.6001	28.06072	34.65762	2.429109	124.2515	118.2731	0.6433113	8.410634	238.1622
9/26/2014 3:19:35 PM	15:19:35	80	B	7	46	65.71429	33593.14	30	42.85714	15000	1003.776	90.68414	88.48535	14.268	29.575	255.8291	20.16	94.43015	0.5349998	14.2877	0.6340008	1	3	1	0.15	2547	56.7998	27.4481	34.723	2.433628	124.3495	119.2628	0.6428639	8.404785	237.9966
9/26/2014 3:19:45 PM	15:19:45	90	B	7	46	65.71429	33593.14	31	47.14286	16500	1005.086	91.69777	88.48535	14.268	29.575	256.4907	20.17	94.43015	0.5289993	14.28751	0.6369991	1	3	1	0.15	2524	57.3999	27.5846	34.62299	2.426619	124.717	119.6676	0.6443899	8.424737	238.5616
9/26/2014 3:19:55 PM	15:19:55	100	B	7	46	65.71429	33593.14	30	42.85714	15000	1006.818	92.00626	88.49393	14.26763	29.72501	256.6671	20.045	94.60643	0.5100002	14.28617	0.6219997	1	3	1	0.15	2530	56.6001	27.2649	34.60263	2.425255	124.815	119.8253	0.6376742	8.336935	236.0753
9/26/2014 3:20:05 PM	15:20:05	110	B	7	46	65.71429	33593.14	30	42.85714	15000	1004.409	92.22661	88.47681	14.268	29.895	257.064	20.12	94.51829	0.5279999	14.28549	0.618	1	3	1	0.15	2530	57.6001	27.74661	34.563	2.422414	125.0355	119.853	0.6346162	8.296955	234.9432
9/26/2014 3:20:15 PM	15:20:15	120	B	7	46	65.71429	33593.14	30	42.85714	15000	1006.818	91.9622	88.47681	14.268	29.895	257.1081	20.36	94.51829	0.493	14.28585	0.6270008	1	3	1	0.15	2530	56.7998	27.3611	34.63799	2.42767	125.0601	119.9037	0.6392171	8.357107	236.6465
9/26/2014 3:20:25 PM	15:20:25	130	B	7	46	65.71429	33593.14	29	42.85714	15000	999.5084	92.31477	88.46823	14.26763	29.62	257.2404	20.32001	94.51829	0.5060005	14.28768	0.6299992	1	3	1	0.15	2540	56.3999	27.17927	34.68762	2.431212	125.1336	120.3158	0.6408027	8.377838	237.2336
9/26/2014 3:20:35 PM	15:20:35	0	B	7	46	65.71429	33593.14	29	42.85714	15000	1004.24	92.09441	88.47681	14.26838	29.815	256.7552	20.09	94.56236	0.559	14.28811	0.625	1	3	1	0.15	2545	56.7998	27.52332	34.34337	2.406957	124.864	119.0539	0.6382446	8.344393	236.2865
9/26/2014 3:20:45 PM	15:20:45	0	B	7	46	65.71429	33593.14	30	41.42857	14500	1008.339	92.84361	88.50244	14.26763	29.87	257.1963	20.22501	94.60643	0.5209999	14.28685	0.6219997	1	3	1	0.15	2514	56.7998	27.18806	34.48262	2.416844	125.109	120.0384	0.6366524	8.323577	235.6971
9/26/2014 3:20:55 PM	15:20:55	0	B	7	48	68.57143	35053.72	31	44.28571	15500	1014.972	91.87405	88.50244	14.26763	29.87	258.387	22.545	94.60643	0.5960007	14.28953	0.7259998	1	3	1	0.15	2681	61.2002	31.24034	36.67763	2.570689	125.7706	126.2036	0.6877961	8.992228	254.6311
9/26/2014 3:21:05 PM	15:21:05	0	B	7	48	68.57143	35053.72	33	47.14286	16500	1013.747	91.30114	88.45969	14.268	29.895	262.9295	23.875	94.6505	0.6879997	14.29163	0.7439995	1	3	1	0.15	2843	66	35.72622	37.863	2.653701	128.2942	129.362	0.7004372	9.157497	259.311
9/26/2014 3:21:15 PM	15:21:15	0	B	7	48	68.57143	35053.72	34	47.14286	16500	1020.38	91.34521	88.47681	14.268	30.465	265.9284	23.28999	94.60643	0.677	14.29207	0.7409992	1	3	1	0.15	2863	66.3999	36.19553	37.578	2.633726	129.9602	128.5417	0.6949118	9.085258	257.2654
9/26/2014 3:21:25 PM	15:21:25	0	B	7	48	68.57143	35053.72	34	47.14286	16500	1026	92.35883	88.47681	14.268	30.465	268.2658	23.39	94.56236	0.6760006	14.29225	0.7460003	1	3	1	0.15	2863	66.7998	36.30466	37.318	2.615503	131.2588	128.4975	0.6972624	9.115991	258.1357
9/26/2014 3:21:35 PM	15:21:35	0	B	7	48	70	35784	33	47.14286	16500	1026.887	92.97582	88.49393	14.26838	30.44	270.7354	23.505	94.6505	0.6280003	14.29111	0.7369995	1	3	1	0.15	2860	67.3999	36.70215	37.76838	2.646999	132.6308	130.1382	0.694384	9.078359	257.0701
9/26/2014 3:21:45 PM	15:21:45	0	B	7	48	68.57143	35053.72	33	47.14286	16500	1018.437	92.27069	88.49393	14.26838	30.64999	271.9262	23.46001	94.91492	0.7259998	14.29172	0.7439995	1	3	1	0.15	2881	66.6001	36.53291	37.73337	2.644546	133.2923	129.6795	0.6970254	9.112892	258.0479
9/26/2014 3:21:55 PM	15:21:55	0	B	7	48	70	35784	36	51.42857	18000	1017.254	92.27069	88.49393	14.26838	30.64999	272.8082	23.53999	94.78271	0.6700001	14.29125	0.75	1	3	1	0.15	2883	67.2002	36.77779	37.74338	2.645247	133.7333	129.7095	0.6980395	9.12615	258.4234
9/26/2014 3:22:05 PM	15:22:05	0	B	7	48	70	35784	33	47.14286	16500	1027.394	93.1521	88.49393	14.26838	30.575	273.5138	23.245	94.91492	0.6439991	14.29367	0.7469997	1	3	1	0.15	2868	67	36.47712	37.95838	2.660315	134.1743	130.9964	0.7003435	9.156273	259.2763
9/26/2014 3:22:15 PM	15:22:15	0	B	7	48	68.57143	35053.72	33	47.14286	16500	1012.944	91.6537	88.51099	14.26763	30.56	273.9108	23.62	94.91492	0.6669998	14.29112	0.7520008	1	3	1	0.15	2882	67.7998	37.20391	37.80263	2.649539	134.3949	129.4423	0.7016572	9.173448	259.7627
9/26/2014 3:22:25 PM	15:22:25	0	B	7	49	70	35784	34	48.57143	17000	1012.057	90.81635	88.51099	14.26763	30.56	273.6461	23.595	95.04713	0.6609993	14.29123	0.7600002	1	3	1	0.15	2887	67.6001	37.26846	37.81763	2.65059	134.2479	128.8755	0.7034246	9.196554	260.417
9/26/2014 3:22:35 PM	15:22:35	0	B	7	48	68.57143	35053.72	34	48.57143	17000	1012.015	90.24344	88.51099	14.26763	30.345	273.6021	23.91499	94.87086	0.7320004	14.29119	0.7530003	1	3	1	0.15	2882	67.6001	37.09433	38.15762	2.67442	134.2234	129.4669	0.7003201	9.155967	259.2677
9/26/2014 3:22:45 PM	15:22:45	0	B	7	48	68.57143	35053.72	34	48.57143	17000	1012.31	90.19937	88.51099	14.26725	30.095	273.6461	23.67	94.91492	0.6609993	14.28861	0.7350006	1	3	1	0.15	2896	67.3999	37.16413	38.10725	2.670959	134.2479	129.2885	0.6922995	9.051105	256.2983
9/26/2014 3:22:55 PM	15:22:55	0	B	7	49	68.57143	35053.72	34	48.57143	17000	1009.057	90.37565	88.51099	14.26725	30.095	273.7343	23.59	94.73865	0.7199993	14.29219	0.7450008	1	3	1	0.15	2894	67.3999	37.24878	37.86225	2.653788	134.2969	128.5286	0.696234	9.102545	257.7549
9/26/2014 3:23:05 PM	15:23:05	0	B	7	49	70	35784	34	48.57143	17000	1009.184	90.24344	88.50244	14.26688	29.94501	273.5138	23.705	94.6505	0.7110004	14.2916	0.7600002	1	3	1	0.15	2890	67	36.86709	38.34688	2.687826	134.1743	130.0321	0.7027909	9.188269	260.1824
9/26/2014 3:23:15 PM	15:23:15	1	C	8	49	70	35784	34	48.57143	17000	1008.973	90.19937	88.50244	14.26688	29.94501	273.6461	23.88499	94.51829	0.691	14.29261	0.7469997	1	3	1	0.15	2898	68.3999	37.63139	37.76688	2.647172	134.2479	128.2796	0.6977738	9.122676	258.325
9/26/2014 3:23:25 PM	15:23:25	11	C	8	48	68.57143	35053.72	33	47.14286	16500	1011.001	90.06715	88.50244	14.26687	29.56	273.8225	23.78999	94.43015	0.7000008	14.29123	0.7509995	1	3	1	0.15	2898	67	37.07961	37.90187	2.656635	134.3459	128.5851	0.6982523	9.128931	258.5021
9/26/2014 3:23:35 PM	15:23:35	21	C	8	48	68.57143	35053.72	34	48.57143	17000	1008.592	90.59601	88.48535	14.2665	29.325	273.8666	23.565	94.342	0.6700001	14.2893	0.7539997	1	3	1	0.15	2880	68.3999	37.61694	37.9515	2.660183	134.3704	129.1221	0.7024553	9.183882	260.0581
9/26/2014 3:23:45 PM	15:23:45	31	C	8	48	68.57143	35053.72	34	48.57143	17000	1010.156	90.86044	88.48535	14.2665	29.325	274.2195	23.855	94.43015	0.5949993	14.29064	0.7439995	1	3	1	0.15	2882	67	36.87489	38.27151	2.682614	134.5664	130.2647	0.6963879	9.104557	257.8119
9/26/2014 3:23:55 PM	15:23:55	41	C	8	48	68.57143	35053.72	34	48.57143	17000	1016.916	91.87405	88.47681	14.2665	29.38	274.7046	23.42	94.12166	0.6369991	14.29035	0.7469997	1	3	1	0.15	2880	66.3999	36.41046	37.8765	2.654926	134.8359	129.8327	0.6979802	9.125376	258.4014
9/26/2014 3:24:05 PM	15:24:05	51	C	8	48	68.57143	35053.72	34	48.57143	17000	1017.085	92.7114	88.47681	14.26687	29.53	275.4543	23.75999	94.342	0.6700001	14.29051	0.7490005	1	3	1	0.15	2879	66.7998	36.72676	37.90187	2.656635	135.2524	130.5174	0.6987695	9.135695	258.6936
9/26/2014 3:24:15 PM	15:24:15	61	C	8	48	68.57143	35053.72	34	47.14286	16500	1013.451	92.62326	88.47681	14.26763	29.63	275.4102	23.80499	94.16573	0.6340008	14.29003	0.7399998	1	3	1	0.15	2895	66.6001	36.60009	37.99762	2.663206	135.2279	130.7328	0.6946663	9.082048	257.1745
9/26/2014 3:24:25 PM	15:24:25	71	C	8	48	70	35784	34	48.57143	17000	1014.212	92.88767	88.47681	14.26763	29.63	275.322	23.64999	94.20979	0.6730003	14.29249	0.7530003	1	3	1	0.15	2887	66.7998	36.71877	38.02762	2.665308	135.1789	131.0157	0.700748	9.16156	259.4261
9/26/2014 3:24:35 PM	15:24:35	81	C	8	48	68.57143	35053.72	33	48.57143	17000	1020.972	93.85723	88.46823	14.26687	29.895	276.0276	23.11	94.25386	0.6450005	14.29127	0.7369995	1	3	1	0.15	2874	66.6001	36.44415	37.72188	2.644018	135.5709	130.8148	0.6932456	9.063475	256.6486
9/26/2014 3:24:45 PM	15:24:45	91	C	8	48	68.57143	35053.72	33	47.14286	16500	1022.366	94.47422	88.46823	14.26687	29.895	276.3804	23.44501	94.342	0.7250004	14.29123	0.7409992	1	3	1	0.15	2867	66.7998	36.4644	37.83688	2.652079	135.7669	131.6107	0.6950396	9.086929	257.3127
9/26/2014 3:24:55 PM	15:24:55	101	C	8	49	68.57143	35053.72	34	47.14286	16500	1020	94.56236	88.49393	14.26725	30.42	276.7332	23.3	94.29794	0.6389999	14.29067	0.7450008	1	3	1	0.15	2876	67	36.6885	37.63226	2.637667	135.9629	131.0566	0.6969237	9.111562	258.0103
9/26/2014 3:25:05 PM	15:25:05	111	C	8	49	70	35784	34	48.57143	17000	1015.733	94.25386	88.48535	14.26687	30.92999	276.9096	23.78	94.342	0.6399994	14.29037	0.743	1	3	1	0.15	2883	67	36.88768	37.84688	2.65278	136.0609	131.4798	0.6936061	9.068188	256.782
9/26/2014 3:25:15 PM	15:25:15	121	C	8	48	68.57143	35053.72	34	47.14286	16500	1018.69	94.12166	88.47681	14.26687	31.34	276.601	23.67	94.43015	0.6790009	14.29134	0.7350006	1	3	1	0.15	2880	66.6001	36.52023	37.61688	2.636659	135.8894	130.6919	0.6921774	9.049509	256.2531
9/26/2014 3:25:25 PM	15:25:25	131	C	8	48	68.57143	35053.72	33	47.14286	16500	1020.972	94.43015	88.47681	14.26687	31.34	276.7332	23.53999	94.43015	0.632	14.28997	0.7399998	1	3	1	0.15	2876	66.7998	36.46951	37.66687	2.640163	135.9629	131.0674	0.6944944	9.079802	257.1109
9/26/2014 3:26:00 PM	15:26:00	0	C	8	48	68.57143	35053.72	33	47.14286	16500	1029.464	95.84042	88.47681	14.26687	31.58501	277.8799	23.16499	94.6505	0.6620007	14.29033	0.7399998	1	3	1	0.15	2860	66.2002	36.1576	37.15688	2.604416	136.6	130.5492	0.6943815	9.078326	257.0692
9/26/2014 3:26:10 PM	15:26:10	0	C	8	48	68.57143	35053.72	33	47.14286	16500	1024.69	96.63368	88.47681	14.26687	31.58501	278.6737	23.61501	94.6505	0.684	14.29065	0.7369995	1	3	1	0.15	2861	67	36.38809	37.49687	2.628247	137.041	132.1602	0.6934388	9.066001	256.7201
9/26/2014 3:26:20 PM	15:26:20	0	C	8	49	70	35784	33	47.14286	16500	1021.437	95.84042	88.48535	14.26725	32.13	278.6737	23.66499	94.6505	0.6340008	14.29045	0.7409992	1	3	1	0.15	2869	66.3999	36.27139	37.64725	2.638718	137.041	132.034	0.6948513	9.084469	257.2431
9/26/2014 3:26:30 PM	15:26:30	0	C	8	48	68.57143	35053.72	33	47.14286	16500	1015.352	95.35563	88.46823	14.2665	31.825	278.365	23.575	94.87086	0.6229992	14.29075	0.7530003	1	3	1	0.15	2874	66.6001	36.55343	37.9365	2.659132	136.8694	132.5567	0.7002983	9.155682	259.2596
9/26/2014 3:26:40 PM	15:26:40	0	C	8	48	68.57143	35053.72	34	48.57143	17000	1015.057	94.29794	88.46823	14.2665	31.825	277.2184	23.605	95.04713	0.5900002	14.28771	0.7420006	1	3	1	0.15	2885	67.3999	37.02297	37.75651	2.646515	136.2324	131.2436	0.6949742	9.086075	257.2885
9/26/2014 3:26:50 PM	15:26:50	0	C	8	49	70	35784	34	48.57143	17000	1013.155	93.46059	88.48535	14.26725	31.955	276.8656	23.62	94.95899	0.6709995	14.29085	0.7420006	1	3	1	0.15	2887	67	36.82882	37.60725	2.635914	136.0364	130.1778	0.6960355	9.099949	257.6814
9/26/2014 3:27:00 PM	15:27:00	0	C	8	49	70	35784	35	50	17500	1015.859	93.10803	88.47681	14.26612	32.185	276.6891	23.45	94.78271	0.6609993	14.28925	0.7369995	1	3	1	0.15	2889	66.7998	36.74421	37.66612	2.640249	135.9384	130.1067	0.6923668	9.051986	256.3233
9/26/2014 3:27:10 PM	15:27:10	0	C	8	49	68.57143	35053.72	33	47.14286	16500	1015.859	93.46059	88.47681	14.26612	32.185	276.9096	23.38	95.00306	0.6830006	14.29012	0.7369995	1	3	1	0.15	2884	67	36.79055	37.87613	2.654969	136.0609	130.9938	0.6927347	9.056795	256.4594
9/26/2014 3:27:20 PM	15:27:20	4	C	9	49	70	35784	33	47.14286	16500	1019.197	94.38609	88.45969	14.26687	31.72	277.3506	23.77	94.78271	0.6459999	14.28961	0.7320004	1	3	1	0.15	2873	68.2002	37.416	37.80188	2.649626	136.3059	131.4412	0.690522	9.027866	255.6403
9/26/2014 3:27:30 PM	15:27:30	14	C	9	48	70	35784	34	48.57143	17000	1018.733	94.25386	88.45969	14.26687	31.72	277.1743	23.67	94.73865	0.6399994	14.2895	0.7420006	1	3	1	0.15	2879	67.3999	36.94597	37.78688	2.648575	136.2079	131.2997	0.6952088	9.089143	257.3754
9/26/2014 3:27:40 PM	15:27:40	24	C	9	48	68.57143	35053.72	34	48.57143	17000	1011.043	93.50466	88.47681	14.26612	31.595	276.6891	23.965	94.78271	0.677	14.28889	0.7479992	1	3	1	0.15	2886	67.7998	37.25555	38.11613	2.671793	135.9384	131.743	0.6993847	9.143737	258.9214
9/26/2014 3:27:50 PM	15:27:50	34	C	9	48	68.57143	35053.72	34	48.57143	17000	1016.367	93.46059	88.46823	14.2665	31.22501	276.5127	23.77	94.87086	0.6609993	14.28963	0.7479992	1	3	1	0.15	2893	67.3999	37.23591	37.86651	2.654225	135.8404	130.962	0.6979409	9.124862	258.3869
9/26/2014 3:28:00 PM	15:28:00	44	C	9	49	70	35784	33	48.57143	17000	1019.071	93.41653	88.46823	14.2665	31.22501	276.6891	23.465	94.91492	0.6259995	14.29039	0.743	1	3	1	0.15	2882	67	36.76503	37.81651	2.650721	135.9384	130.78	0.6960783	9.100509	257.6973
9/26/2014 3:28:10 PM	15:28:10	54	C	9	49	68.57143	35053.72	34	48.57143	17000	1016.071	93.54874	88.47681	14.2665	31.2	276.7773	23.765	94.73865	0.6469994	14.28988	0.7369995	1	3	1	0.15	2881	67.3999	37.08146	37.8765	2.654926	135.9874	131.0564	0.6928875	9.058793	256.516
9/26/2014 3:28:20 PM	15:28:20	64	C	9	48	68.57143	35053.72	34	48.57143	17000	1023.591	94.82679	88.48535	14.2665	31.185	277.3506	23.655	94.78271	0.6599998	14.28963	0.7399998	1	3	1	0.15	2871	66.6001	36.40611	37.3465	2.617776	136.3059	130.3915	0.6928438	9.058222	256.4998
9/26/2014 3:28:30 PM	15:28:30	74	C	9	48	68.57143	35053.72	34	47.14286	16500	1015.986	94.16573	88.51956	14.2665	31.155	277.2625	23.42	94.95899	0.6280003	14.28844	0.7280006	1	3	1	0.15	2884	67.2002	36.79055	37.7065	2.64301	136.2569	130.9968	0.6884689	9.001024	254.8802
9/26/2014 3:28:40 PM	15:28:40	84	C	9	48	68.57143	35053.72	34	48.57143	17000	1018.437	94.6505	88.51956	14.2665	31.155	277.1743	23.50999	94.87086	0.6940002	14.29173	0.7299995	1	3	1	0.15	2882	66.3999	36.32616	37.9715	2.661585	136.2079	132.1461	0.6890993	9.009266	255.1136
9/26/2014 3:28:50 PM	15:28:50	94	C	9	48	68.57143	35053.72	38	48.57143	17000	1027.943	95.62006	88.51099	14.26612	30.745	277.7476	23.285	94.91492	0.5799999	14.28943	0.7290001	1	3	1	0.15	2871	66.2002	36.18751	37.43112	2.623776	136.5264	130.9396	0.6890008	9.007978	255.0771
9/26/2014 3:29:00 PM	15:29:00	104	C	9	48	70	35784	33	47.14286	16500	1028.324	96.10483	88.51099	14.26612	30.745	278.7178	23.47	94.95899	0.6490002	14.28907	0.7329998	1	3	1	0.15	2868	66.2002	36.14969	37.57612	2.63394	137.0655	132.1172	0.6908504	9.03216	255.7619
9/26/2014 3:29:10 PM	15:29:10	114	C	9	48	68.57143	35053.72	33	47.14286	16500	1025.07	96.06076	88.52808	14.26612	30.91	278.6737	23.09	95.04713	0.6490002	14.28987	0.7350006	1	3	1	0.15	2866	66.7998	36.3427	37.53112	2.630786	137.041	131.8525	0.6898732	9.019383	255.4001
9/26/2014 3:29:20 PM	15:29:20	124	C	9	49	70	35784	34	50	17500	1018.521	95.70819	88.51956	14.26612	30.88499	278.7178	23.62	95.09122	0.7129993	14.29077	0.7399998	1	3	1	0.15	2883	68.2002	37.32671	37.76112	2.646908	137.0655	132.2899	0.6973659	9.117344	258.174
9/26/2014 3:29:30 PM	15:29:30	134	C	9	49	70	35784	34	47.14286	16500	1025.408	95.70819	88.51099	14.2665	30.55499	278.7619	23.38	95.13528	0.6270008	14.28999	0.7299995	1	3	1	0.15	2868	66.6001	36.36806	37.8665	2.654226	137.09	132.6041	0.689364	9.012727	255.2116
9/26/2014 3:30:29 PM	15:30:29	0	C	9	49	70	35784	34	48.57143	17000	1012.648	93.46059	88.52808	14.2665	29.745	278.0122	23.38499	95.31156	0.6550007	14.28987	0.7339993	1	3	1	0.15	2884	66.7998	36.68062	37.58113	2.634291	136.6735	130.1081	0.691111	9.035566	255.8583
9/26/2014 3:30:39 PM	15:30:39	4	C	10	49	70	35784	33	48.57143	17000	1013.662	93.5928	88.52808	14.2665	29.745	277.9681	23.345	95.26749	0.6809998	14.28985	0.7390003	1	3	1	0.15	2872	66.6001	36.41879	37.5265	2.630393	136.6489	130.037	0.6934937	9.066719	256.7404
9/26/2014 3:30:49 PM	15:30:49	14	C	10	48	68.57143	35053.72	34	47.14286	16500	1015.268	93.32839	88.5452	14.26575	30.02499	278.2327	23.265	95.13528	0.6700001	14.29004	0.7199993	1	3	1	0.15	2885	66.2002	36.36397	37.52574	2.630478	136.7959	129.8479	0.6846141	8.950627	253.4531
9/26/2014 3:30:59 PM	15:30:59	24	C	10	48	70	35784	34	48.57143	17000	1015.691	93.32839	88.5452	14.26575	30.02499	278.4532	23.47501	95.22342	0.6849995	14.28957	0.7290001	1	3	1	0.15	2883	67.2002	36.88768	37.77574	2.648003	136.9185	130.5995	0.6888199	9.005614	255.0102
9/26/2014 3:31:09 PM	15:31:09	34	C	10	48	68.57143	35053.72	34	48.57143	17000	1017.972	93.5928	88.56232	14.2665	30.09	278.2327	23.55	95.26749	0.6609993	14.29021	0.7329998	1	3	1	0.15	2867	66.7998	36.4644	37.8315	2.651772	136.7959	130.9537	0.6878619	8.993088	254.6555
9/26/2014 3:31:19 PM	15:31:19	44	C	10	48	68.57143	35053.72	33	47.14286	16500	1016.874	93.63687	88.57083	14.26612	29.995	278.5855	23.46001	95.22342	0.7000008	14.2903	0.7420006	1	3	1	0.15	2880	67.2002	36.95881	37.92112	2.658124	136.992	131.2573	0.6926181	9.05527	256.4163
9/26/2014 3:31:29 PM	15:31:29	54	C	10	48	68.57143	35053.72	35	48.57143	17000	1012.226	93.10803	88.57083	14.26612	29.995	278.2327	23.405	95.13528	0.6580009	14.29131	0.7369995	1	3	1	0.15	2888	67.3999	36.95166	37.90612	2.657072	136.7959	130.8259	0.6926788	9.056065	256.4388
9/26/2014 3:31:39 PM	15:31:39	64	C	10	48	68.57143	35053.72	34	48.57143	17000	1017.845	93.37246	88.57941	14.2665	29.94	278.4091	23.47	95.04713	0.6620007	14.29245	0.7299995	1	3	1	0.15	2872	66.3999	36.30931	37.8215	2.65107	136.894	130.7628	0.6871216	8.983411	254.3814
9/26/2014 3:31:49 PM	15:31:49	74	C	10	49	68.57143	35053.72	34	48.57143	17000	1019.747	93.94537	88.56232	14.26612	29.78999	278.6737	23.38	95.17935	0.6469994	14.29005	0.7290001	1	3	1	0.15	2870	67	36.72135	37.49612	2.628333	137.041	130.2052	0.6888691	9.006257	255.0284
9/26/2014 3:31:59 PM	15:31:59	84	C	10	48	68.57143	35053.72	34	48.57143	17000	1015.606	93.63687	88.56232	14.26612	29.78999	278.4532	23.47501	95.22342	0.6700001	14.29016	0.7329998	1	3	1	0.15	2878	67.3999	36.93314	37.85612	2.653567	136.9185	131.0627	0.6911819	9.036494	255.8846
9/26/2014 3:32:09 PM	15:32:09	94	C	10	48	68.57143	35053.72	34	48.57143	17000	1017.296	93.9013	88.58795	14.26612	29.605	278.0563	23.455	94.95899	0.6639996	14.28943	0.7280006	1	3	1	0.15	2879	67.2002	36.8365	37.79112	2.649011	136.6979	131.0609	0.6889744	9.007634	255.0674
9/26/2014 3:32:19 PM	15:32:19	104	C	10	48	68.57143	35053.72	33	47.14286	16500	1018.606	94.07759	88.59647	14.2665	29.5	278.2327	23.41	95.13528	0.6900005	14.29064	0.7350006	1	3	1	0.15	2875	66.7998	36.56615	37.7765	2.647916	136.7959	131.1428	0.6917268	9.043617	256.0863
9/26/2014 3:32:29 PM	15:32:29	114	C	10	48	68.57143	35053.72	34	48.57143	17000	1011.296	93.01989	88.59647	14.2665	29.5	278.4091	23.83501	95.04713	0.6679993	14.29136	0.7420006	1	3	1	0.15	2889	67.6001	37.29428	38.10151	2.670698	136.894	131.3416	0.6941518	9.075323	256.9841
9/26/2014 3:32:39 PM	15:32:39	124	C	10	48	68.57143	35053.72	33	47.14286	16500	1014.761	93.06396	88.58795	14.26575	29.455	277.7476	23.47	94.91492	0.677	14.29079	0.7339993	1	3	1	0.15	2876	66.6001	36.46951	37.79074	2.649054	136.5264	130.4514	0.6899968	9.020999	255.4458
9/26/2014 3:32:49 PM	15:32:49	134	C	10	48	68.57143	35053.72	34	48.57143	17000	1016.958	93.37246	88.58795	14.26538	29.75999	277.7917	23.485	94.82679	0.6539993	14.29049	0.7390003	1	3	1	0.15	2878	66.7998	36.60431	37.72538	2.644542	136.5509	130.4835	0.6914384	9.039847	255.9795
9/26/2014 3:33:39 PM	15:33:39	0	C	10	48	68.57143	35053.72	35	48.57143	17000	1010.874	92.88767	88.56232	14.26538	30.005	276.9096	23.64999	94.87086	0.7199993	14.29132	0.7390003	1	3	1	0.15	2889	66.6001	36.63436	37.96537	2.661365	136.0609	130.8478	0.6938009	9.070735	256.8542
9/26/2014 3:33:49 PM	15:33:49	8	C	11	48	68.57143	35053.72	33	47.14286	16500	1013.071	92.35883	88.57941	14.26575	29.925	276.6451	23.285	94.87086	0.6539993	14.29	0.7290001	1	3	1	0.15	2883	67.2002	36.99731	38.01575	2.664827	135.9139	130.6084	0.6890519	9.008646	255.096
9/26/2014 3:33:59 PM	15:33:59	18	C	11	48	68.57143	35053.72	34	48.57143	17000	1021.563	94.56236	88.57941	14.26575	29.925	277.483	23.38	94.78271	0.6709995	14.29061	0.7269993	1	3	1	0.15	2865	65.6001	35.89347	37.75575	2.646601	136.3794	131.4403	0.6881717	8.997138	254.7702
9/26/2014 3:34:09 PM	15:34:09	28	C	11	49	70	35784	34	48.57143	17000	1016.747	94.73865	88.55377	14.26575	30	277.9681	23.105	95.00306	0.6720009	14.29025	0.7159996	1	3	1	0.15	2871	66.2002	36.18751	37.91574	2.657816	136.6489	132.0495	0.6828239	8.927222	252.7904
9/26/2014 3:34:19 PM	15:34:19	38	C	11	48	68.57143	35053.72	33	47.14286	16500	1018.69	94.07759	88.57083	14.26538	29.97501	278.0122	23.325	95.09122	0.6940002	14.28984	0.7280006	1	3	1	0.15	2865	66.3999	36.22082	37.62537	2.637531	136.6735	130.6973	0.6898462	9.019031	255.3901
9/26/2014 3:34:29 PM	15:34:29	48	C	11	48	68.57143	35053.72	33	47.14286	16500	1020.972	94.6505	88.57083	14.26538	29.97501	278.1445	23.14999	95.17935	0.6200008	14.28916	0.7259998	1	3	1	0.15	2859	66	35.92728	37.48537	2.627717	136.7469	130.6924	0.6874348	8.987505	254.4974
9/26/2014 3:34:39 PM	15:34:39	58	C	11	49	68.57143	35053.72	33	47.14286	16500	1017.719	95.04713	88.56232	14.265	30.03	277.9681	23.33501	95.13528	0.6630001	14.28961	0.7210007	1	3	1	0.15	2863	66.3999	36.19553	37.645	2.638977	136.6489	131.4665	0.6851057	8.957054	253.6351
9/26/2014 3:34:49 PM	15:34:49	68	C	11	49	70	35784	33	48.57143	17000	1019.366	94.69456	88.57083	14.26575	30.005	278.2327	23.315	95.13528	0.691	14.28975	0.7280006	1	3	1	0.15	2867	66.6001	36.35538	37.36575	2.619263	136.7959	130.3595	0.6884177	9.000356	254.8613
9/26/2014 3:34:59 PM	15:34:59	78	C	11	48	68.57143	35053.72	33	47.14286	16500	1024.605	95.53191	88.57083	14.26575	30.005	278.6737	23.235	95.17935	0.6639996	14.29004	0.7380009	1	3	1	0.15	2858	66.2002	36.02365	37.83075	2.651859	137.041	132.3738	0.6930951	9.061507	256.5929
9/26/2014 3:35:09 PM	15:35:09	88	C	11	48	68.57143	35053.72	34	48.57143	17000	1018.944	95.00306	88.5452	14.265	30.30499	278.2327	23.44501	95.26749	0.7210007	14.28972	0.7290001	1	3	1	0.15	2867	67.3999	36.79198	37.62	2.637224	136.7959	131.3589	0.6888085	9.005464	255.0059
9/26/2014 3:35:19 PM	15:35:19	98	C	11	48	68.57143	35053.72	34	48.57143	17000	1015.944	95.17935	88.51956	14.26538	30.985	278.1004	23.31	95.13528	0.6429996	14.28897	0.7380009	1	3	1	0.15	2875	66.7998	36.67574	37.66038	2.639985	136.7225	131.6063	0.6931012	9.061586	256.5951
9/26/2014 3:35:29 PM	15:35:29	108	C	11	48	68.57143	35053.72	35	48.57143	17000	1012.564	94.29794	88.51956	14.26538	30.985	277.6153	23.58501	95.31156	0.6819992	14.2914	0.7320004	1	3	1	0.15	2885	67	36.80331	37.92538	2.658561	136.4529	131.7592	0.6902159	9.023865	255.527
9/26/2014 3:35:39 PM	15:35:39	118	C	11	48	68.57143	35053.72	33	47.14286	16500	1018.775	93.98943	88.51099	14.26575	31.245	277.3948	23.63	95.31156	0.6399994	14.28978	0.7329998	1	3	1	0.15	2866	67.2002	36.67017	37.66075	2.639942	136.3304	130.7365	0.6897131	9.017291	255.3408
9/26/2014 3:35:49 PM	15:35:49	128	C	11	48	68.57143	35053.72	33	47.14286	16500	1016.662	94.07759	88.48535	14.26538	30.91499	277.7476	23.515	95.35563	0.6700001	14.2893	0.7269993	1	3	1	0.15	2867	67	36.57368	37.89037	2.656108	136.5264	131.4933	0.6878042	8.992334	254.6341
9/26/2014 3:36:39 PM	15:36:39	0	C	11	51	72.85714	37244.57	37	51.42857	18000	1045.816	95.13528	88.51099	14.26538	31.265	287.8812	26.59	95.57599	0.7900009	14.29393	0.8519993	1	3	1	0.15	3166	78	47.01882	40.84538	2.863253	142.1563	140.899	0.7444227	9.732563	275.595
9/26/2014 3:36:49 PM	15:36:49	0	C	11	51	72.85714	37244.57	37	52.85714	18500	1048.9	95.84042	88.48535	14.26575	30.83	290.0304	26.58	95.57599	0.7970009	14.29477	0.8540001	1	3	1	0.15	3168	77.6001	46.92776	41.01074	2.87477	143.3502	141.8925	0.7452987	9.744015	275.9193
9/26/2014 3:36:59 PM	15:36:59	0	C	11	51	72.85714	37244.57	37	52.85714	18500	1046.28	95.09122	88.48535	14.26575	30.83	290.9707	26.435	95.70819	0.7770004	14.29502	0.8379993	1	3	1	0.15	3189	77.7998	47.11758	40.96075	2.871266	143.8726	141.1909	0.7417438	9.697538	274.6032
9/26/2014 3:37:09 PM	15:37:09	0	C	11	51	72.85714	37244.57	37	52.85714	18500	1049.196	96.58961	88.46823	14.26538	30.41499	292.6721	26.485	95.79634	0.7709999	14.29573	0.8630009	1	3	1	0.15	3174	77	46.5333	41.33038	2.897251	144.8178	143.3615	0.7482147	9.78214	276.9989
9/26/2014 3:37:19 PM	15:37:19	0	C	11	51	72.85714	37244.57	37	54.28572	19000	1041.252	94.87086	88.42551	14.26575	30.55499	292.4034	26.60001	95.92855	0.7689991	14.29452	0.8579998	1	3	1	0.15	3191	78.2002	47.3901	41.07074	2.878975	144.6686	141.338	0.7485242	9.786185	277.1134
9/26/2014 3:37:29 PM	15:37:29	0	C	11	51	72.85714	37244.57	38	54.28572	19000	1038.379	93.54874	88.42551	14.26575	30.55499	292.4034	26.92999	95.92855	0.7859993	14.29405	0.8640003	1	3	1	0.15	3200	78.2002	47.64573	41.47075	2.907015	144.6686	141.4758	0.7493911	9.79752	277.4344
9/26/2014 3:37:39 PM	15:37:39	0	C	11	51	72.85714	37244.57	37	54.28572	19000	1033.309	92.97582	88.4426	14.265	30.465	292.3139	26.675	95.97262	0.8589993	14.29265	0.8600006	1	3	1	0.15	3205	78.6001	47.96421	41.27	2.893095	144.6188	140.489	0.7467113	9.762484	276.4423
9/26/2014 3:37:49 PM	15:37:49	0	C	11	51	72.85714	37244.57	38	54.28572	19000	1035.38	92.84361	88.4426	14.26538	30.495	292.0453	26.8	95.84042	0.7740002	14.29526	0.8600006	1	3	1	0.15	3209	78.7998	48.1461	41.38038	2.900756	144.4696	140.697	0.7447277	9.736551	275.708
9/26/2014 3:37:59 PM	15:37:59	0	C	11	51	72.85714	37244.57	37	52.85714	18500	1042.858	93.94537	88.4426	14.26538	30.495	292.896	26.61	95.75226	0.7810001	14.29523	0.8630009	1	3	1	0.15	3191	77.6001	47.26847	40.80038	2.860098	144.9422	139.8832	0.7482454	9.78254	277.0102
9/26/2014 3:38:09 PM	15:38:09	3	D	12	51	72.85714	37244.57	38	52.85714	18500	1044.421	94.38609	88.43405	14.26612	30.755	293.7019	27.075	95.75226	0.7889996	14.29309	0.8689995	1	3	1	0.15	3196	78	47.34253	41.32612	2.896801	145.39	141.6935	0.753819	9.85541	279.0737
9/26/2014 3:38:19 PM	15:38:19	13	D	12	51	72.85714	37244.57	38	52.85714	18500	1043.196	93.94537	88.41696	14.26575	31.11501	293.4333	26.795	95.75226	0.8139992	14.29723	0.8579998	1	3	1	0.15	3204	78.2002	47.58316	41.13574	2.883532	145.2407	140.8299	0.7469892	9.766117	276.5452
9/26/2014 3:38:29 PM	15:38:29	23	D	12	51	72.85714	37244.57	37	54.28572	19000	1042.731	94.03352	88.41696	14.26575	31.11501	293.9258	26.83	95.84042	0.8190002	14.29481	0.8659992	1	3	1	0.15	3199	78.6001	47.87442	41.33075	2.897202	145.5143	141.4456	0.7507617	9.815439	277.9418
9/26/2014 3:38:39 PM	15:38:39	33	D	12	51	72.85714	37244.57	38	54.28572	19000	1036.013	93.41653	88.40839	14.265	31.25999	293.7914	26.64999	95.84042	0.8239994	14.29496	0.8719997	1	3	1	0.15	3221	78.7998	48.32613	41.33	2.897301	145.4397	140.9876	0.752942	9.843944	278.749
9/26/2014 3:38:49 PM	15:38:49	43	D	12	51	72.85714	37244.57	38	54.28572	19000	1044.294	93.85723	88.42551	14.265	31.095	293.8362	26.66	95.88448	0.7579994	14.29322	0.8500004	1	3	1	0.15	3209	78.2002	47.77974	40.97	2.872065	145.4646	140.3015	0.7433262	9.718228	275.1891
9/26/2014 3:38:59 PM	15:38:59	53	D	12	51	72.85714	37244.57	38	54.28572	19000	1043.196	93.85723	88.42551	14.265	31.095	294.4631	26.985	95.84042	0.7679996	14.29601	0.8740005	1	3	1	0.15	3216	77.7998	47.63879	41.145	2.884333	145.8128	140.7963	0.7538136	9.855339	279.0717
9/26/2014 3:39:09 PM	15:39:09	63	D	12	51	72.85714	37244.57	37	52.85714	18500	1044.97	93.85723	88.40839	14.265	31.19501	294.9108	27.16	95.75226	0.7919998	14.29283	0.8619995	1	3	1	0.15	3211	78.3999	47.80952	41.37	2.900105	146.0616	141.4301	0.7507873	9.815773	277.9513
9/26/2014 3:39:19 PM	15:39:19	73	D	12	51	72.85714	37244.57	38	54.28572	19000	1037.915	93.01989	88.39984	14.26463	30.935	294.866	27.09	95.84042	0.809	14.29397	0.8640003	1	3	1	0.15	3206	79.2002	48.34549	41.23463	2.890691	146.0367	140.4255	0.7524661	9.837722	278.5728
9/26/2014 3:39:29 PM	15:39:29	83	D	12	51	72.85714	37244.57	38	54.28572	19000	1034.915	92.13847	88.39984	14.26463	30.935	294.2392	26.73	95.88448	0.8069992	14.29491	0.8549995	1	3	1	0.15	3209	78.7998	48.26841	41.32963	2.897351	145.6884	140.0326	0.7455373	9.747135	276.0077
9/26/2014 3:39:39 PM	15:39:39	93	D	12	51	72.85714	37244.57	38	52.85714	18500	1041.379	92.49104	88.39984	14.26425	30.60001	294.5526	26.605	95.79634	0.7539997	14.29403	0.8530006	1	3	1	0.15	3204	79	48.07108	41.02925	2.876369	145.8626	139.4544	0.7447187	9.736433	275.7046
9/26/2014 3:39:49 PM	15:39:49	103	D	12	51	72.85714	37244.57	37	54.28572	19000	1046.491	93.76909	88.39984	14.265	30.53999	295.269	26.59	95.84042	0.7609997	14.29348	0.8530006	1	3	1	0.15	3195	77.3999	47.08445	40.8	2.860147	146.2606	139.7537	0.7455231	9.74695	276.0024
9/26/2014 3:39:59 PM	15:39:59	113	D	12	51	72.85714	37244.57	38	54.28572	19000	1040.534	93.72502	88.39984	14.265	30.53999	296.0302	27.07001	95.79634	0.7490005	14.29409	0.8710003	1	3	1	0.15	3191	78.2002	47.51173	41.345	2.898353	146.6834	141.2608	0.7524979	9.838138	278.5846
9/26/2014 3:40:09 PM	15:40:09	123	D	12	51	72.85714	37244.57	38	54.28572	19000	1039.309	93.10803	88.39984	14.265	30.705	295.8511	26.965	95.88448	0.7840004	14.29438	0.8710003	1	3	1	0.15	3206	78.3999	47.85698	41.22	2.88959	146.5839	140.4473	0.7528776	9.843102	278.7251
9/26/2014 3:40:19 PM	15:40:19	133	D	12	51	72.85714	37244.57	37	54.28572	19000	1036.901	92.35883	88.40839	14.26463	30.28999	295.269	27.02	95.84042	0.8409996	14.29216	0.8570004	1	3	1	0.15	3212	78.3999	47.94654	41.08962	2.880526	146.2606	139.5228	0.7463869	9.758243	276.3222
9/26/2014 3:41:22 PM	15:41:22	0	D	12	51	72.85714	37244.57	38	52.85714	18500	1036.563	91.25706	88.36563	14.26462	30.735	294.9556	26.69	95.92855	0.7989998	14.29354	0.8519993	1	3	1	0.15	3176	78.3999	47.40916	41.18963	2.887537	146.0865	138.9801	0.7441753	9.729329	275.5034
9/26/2014 3:41:32 PM	15:41:32	0	D	12	51	72.85714	37244.57	38	54.28572	19000	1032.042	90.68414	88.38275	14.265	31.17	294.4631	26.67999	96.10483	0.7989998	14.29156	0.8519993	1	3	1	0.15	3190	78	47.37525	41.19	2.887487	145.8128	138.5496	0.7427012	9.710056	274.9577
9/26/2014 3:41:42 PM	15:41:42	1	D	13	51	72.85714	37244.57	37	52.85714	18500	1034.703	90.72821	88.38275	14.265	31.17	294.3287	27.005	95.84042	0.8059998	14.29369	0.8540001	1	3	1	0.15	3190	77.3999	47.01076	40.925	2.86891	145.7382	137.8376	0.7451053	9.741488	275.8477
9/26/2014 3:41:52 PM	15:41:52	11	D	13	51	72.85714	37244.57	38	52.85714	18500	1036.14	90.55194	88.36563	14.265	31.23	294.1944	26.455	95.84042	0.7849998	14.29333	0.8419991	1	3	1	0.15	3176	77.7998	46.92551	40.735	2.855591	145.6636	137.1698	0.7398623	9.67294	273.9067
9/26/2014 3:42:02 PM	15:42:02	21	D	13	51	72.85714	37244.57	37	52.85714	18500	1042.985	91.60963	88.37421	14.26425	30.785	294.687	26.145	95.92855	0.8069992	14.29211	0.8430004	1	3	1	0.15	3153	77	46.22542	40.59425	2.845874	145.9372	137.5656	0.7393165	9.665804	273.7046
9/26/2014 3:42:12 PM	15:42:12	31	D	13	51	72.85714	37244.57	36	51.42857	18000	1044.294	92.7114	88.37421	14.26425	30.785	295.3138	26.50999	95.88448	0.7989998	14.29316	0.8369999	1	3	1	0.15	3153	77	46.22542	40.38425	2.831151	146.2854	137.788	0.735414	9.614784	272.2599
9/26/2014 3:42:22 PM	15:42:22	41	D	13	51	72.85714	37244.57	37	54.28572	19000	1041.548	92.79954	88.36563	14.265	30.61	295.8063	26.44	96.10483	0.7880001	14.295	0.8470001	1	3	1	0.15	3157	77.7998	46.88516	40.715	2.854188	146.5591	138.7892	0.744095	9.728279	275.4737
9/26/2014 3:42:32 PM	15:42:32	51	D	13	51	72.85714	37244.57	37	52.85714	18500	1040.788	93.01989	88.36563	14.265	30.355	295.7615	26.82001	96.06076	0.7010002	14.29366	0.8419991	1	3	1	0.15	3161	76.7998	46.10203	40.905	2.867508	146.5342	139.6896	0.7397041	9.670873	273.8481
9/26/2014 3:42:42 PM	15:42:42	61	D	13	51	72.85714	37244.57	37	52.85714	18500	1039.182	92.53511	88.36563	14.265	30.355	295.5825	26.595	96.14891	0.8369999	14.29304	0.8430004	1	3	1	0.15	3167	76.6001	46.18954	40.875	2.865405	146.4347	139.0454	0.7400847	9.675848	273.989
9/26/2014 3:42:52 PM	15:42:52	71	D	13	51	72.85714	37244.57	37	52.85714	18500	1038.844	91.43334	88.34857	14.26425	30.925	295.3138	26.645	96.14891	0.8279991	14.29081	0.8419991	1	3	1	0.15	3161	76.7998	46.22222	40.59926	2.846225	146.2854	137.4485	0.7395737	9.669167	273.7998
9/26/2014 3:43:02 PM	15:43:02	81	D	13	51	72.85714	37244.57	37	52.85714	18500	1046.83	92.49104	88.31436	14.26462	30.45	295.7168	26.205	96.28111	0.7800007	14.29209	0.8299999	1	3	1	0.15	3147	77.2002	46.25741	40.37463	2.830402	146.5093	137.5936	0.7342437	9.599483	271.8267
9/26/2014 3:43:12 PM	15:43:12	91	D	13	51	71.42857	36514.29	39	55.71429	19500	1036.436	92.66733	88.31436	14.26462	30.45	295.9854	26.55	96.14891	0.8059998	14.29397	0.8439999	1	3	1	0.15	3157	77.3999	46.4044	40.65963	2.850382	146.6586	138.5365	0.7414029	9.693082	274.4771
9/26/2014 3:43:22 PM	15:43:22	101	D	13	51	72.85714	37244.57	37	51.42857	18000	1042.351	92.88767	88.32288	14.26462	31.455	295.672	26.33	96.36926	0.7779999	14.29245	0.8309994	1	3	1	0.15	3150	76.7998	46.18144	40.76963	2.858094	146.4845	139.013	0.734637	9.604626	271.9723
9/26/2014 3:43:32 PM	15:43:32	111	D	13	51	72.85714	37244.57	37	52.85714	18500	1040.703	93.76909	88.32288	14.26425	31.30499	295.9854	26.27	96.41332	0.7970009	14.29284	0.8409996	1	3	1	0.15	3151	77	46.1961	40.53426	2.841668	146.6586	139.0034	0.7390102	9.6618	273.5912
9/26/2014 3:43:42 PM	15:43:42	121	D	13	51	72.85714	37244.57	37	52.85714	18500	1038.464	93.1521	88.32288	14.26425	31.30499	295.5825	26.395	96.41332	0.7980003	14.2937	0.8379993	1	3	1	0.15	3163	76.7998	46.4926	40.81425	2.861297	146.4347	139.3399	0.7377144	9.644858	273.1115
9/26/2014 3:43:52 PM	15:43:52	131	D	13	51	72.85714	37244.57	37	52.85714	18500	1044.294	93.37246	88.31436	14.26425	31.39	295.7168	26.33501	96.41332	0.8059998	14.29482	0.8430004	1	3	1	0.15	3155	76.3999	45.89426	40.37425	2.830451	146.5093	138.2512	0.7399415	9.673975	273.936
9/26/2014 3:44:02 PM	15:44:02	0	D	13	51	72.85714	37244.57	37	52.85714	18500	1043.999	93.72502	88.31436	14.26425	31.36501	296.2988	26.325	96.45739	0.7740002	14.2915	0.8290005	1	3	1	0.15	3145	76.6001	45.74879	40.59926	2.846225	146.8327	139.1559	0.7314708	9.563231	270.8001
9/26/2014 3:44:12 PM	15:44:12	0	D	13	51	72.85714	37244.57	37	52.85714	18500	1042.604	93.54874	88.31436	14.26425	31.36501	296.5675	26.60001	96.45739	0.7789993	14.29128	0.8449993	1	3	1	0.15	3157	77	46.28407	40.57925	2.844822	146.9819	138.9676	0.7393993	9.666886	273.7353
9/26/2014 3:44:22 PM	15:44:22	0	D	13	51	72.85714	37244.57	37	52.85714	18500	1038.929	92.93174	88.32288	14.26462	31.11501	296.2988	26.69	96.32519	0.7819996	14.2926	0.8500004	1	3	1	0.15	3162	77.6001	46.71865	40.93462	2.86966	146.8327	139.5132	0.7430062	9.714044	275.0706
9/26/2014 3:44:32 PM	15:44:32	0	D	13	51	72.85714	37244.57	37	52.85714	18500	1033.436	91.82998	88.31436	14.26387	30.96001	295.8063	26.47	96.50147	0.7509995	14.29112	0.8449993	1	3	1	0.15	3159	77.2002	46.31339	40.66387	2.850829	146.5591	137.9304	0.7415284	9.694722	274.5235
9/26/2014 3:44:42 PM	15:44:42	0	D	13	50	71.42857	36514.29	37	52.85714	18500	1031.577	90.9045	88.31436	14.26387	30.96001	294.5526	26.265	96.50147	0.7859993	14.29109	0.8430004	1	3	1	0.15	3154	77	46.36031	40.89388	2.866955	145.8626	137.8906	0.7397931	9.672035	273.8811
9/26/2014 3:44:52 PM	15:44:52	0	D	13	51	72.85714	37244.57	37	52.85714	18500	1033.098	90.55194	88.30579	14.26387	31.02499	293.9706	26.21001	96.54554	0.7269993	14.29	0.8260002	1	3	1	0.15	3144	77	46.21331	40.48888	2.838561	145.5392	136.4818	0.7322547	9.573478	271.0902
9/26/2014 3:45:02 PM	15:45:02	8	D	14	50	71.42857	36514.29	36	52.85714	18500	1040.957	91.08078	88.29724	14.26387	31.14	294.1497	26.265	96.45739	0.8409996	14.29297	0.823	1	3	1	0.15	3127	76.3999	45.60615	40.51387	2.840313	145.6387	136.9465	0.7310721	9.558018	270.6525
9/26/2014 3:45:12 PM	15:45:12	18	D	14	50	71.42857	36514.29	37	52.85714	18500	1037.027	91.52148	88.29724	14.26387	31.14	294.4183	26.23	96.45739	0.8239994	14.29311	0.8309994	1	3	1	0.15	3134	76.7998	45.70824	40.42388	2.834004	145.7879	137.0187	0.734619	9.604389	271.9655
9/26/2014 3:45:22 PM	15:45:22	28	D	14	50	71.42857	36514.29	36	52.85714	18500	1038.506	90.77229	88.31436	14.2635	30.78	294.0601	26.25	96.50147	0.7590008	14.29187	0.8360004	1	3	1	0.15	3138	76	45.28843	40.5885	2.84562	145.5889	136.9315	0.7362902	9.626239	272.5843
9/26/2014 3:45:32 PM	15:45:32	38	D	14	50	72.85714	37244.57	38	54.28572	19000	1031.028	89.67052	88.28873	14.2635	30.30499	293.881	26.575	96.45739	0.7950001	14.29321	0.8419991	1	3	1	0.15	3152	76.2002	45.85062	40.5785	2.844919	145.4894	136.0824	0.7394287	9.667272	273.7462
9/26/2014 3:45:42 PM	15:45:42	48	D	14	50	71.42857	36514.29	37	52.85714	18500	1033.732	89.75867	88.28873	14.2635	30.30499	293.5228	26.41499	96.50147	0.8390007	14.29144	0.823	1	3	1	0.15	3148	76.3999	46.03213	40.4685	2.837207	145.2905	135.8365	0.7349724	9.609011	272.0964
9/26/2014 3:45:52 PM	15:45:52	58	D	14	50	71.42857	36514.29	36	51.42857	18000	1037.534	90.37565	88.28873	14.2635	29.625	293.478	26.41499	96.32519	0.8050003	14.29144	0.8209991	1	3	1	0.15	3130	76.7998	45.88823	40.4635	2.836856	145.2656	136.2816	0.7302103	9.54675	270.3334
9/26/2014 3:46:02 PM	15:46:02	68	D	14	51	72.85714	37244.57	37	52.85714	18500	1038.21	90.06715	88.28873	14.2635	29.625	293.478	26.45	96.19298	0.8029995	14.2922	0.8309994	1	3	1	0.15	3135	76.2002	45.48412	40.5485	2.842816	145.2656	136.293	0.736955	9.634932	272.8304
9/26/2014 3:46:12 PM	15:46:12	78	D	14	50	71.42857	36514.29	37	51.42857	18000	1040.281	90.9045	88.29724	14.2635	29.785	293.9706	26.27	96.28111	0.75	14.29205	0.8279991	1	3	1	0.15	3121	76.2002	45.39968	40.4185	2.833701	145.5392	136.5473	0.7333719	9.588084	271.5038
9/26/2014 3:46:22 PM	15:46:22	88	D	14	51	72.85714	37244.57	37	52.85714	18500	1039.393	91.78591	88.30579	14.2635	29.75	294.8213	26.38	96.32519	0.7880001	14.2922	0.8239994	1	3	1	0.15	3131	76	45.1874	40.48851	2.838609	146.0118	137.4025	0.7315567	9.564352	270.8318
9/26/2014 3:46:32 PM	15:46:32	98	D	14	51	72.85714	37244.57	37	51.42857	18000	1036.478	91.43334	88.32288	14.2635	29.575	294.5078	26.45	96.41332	0.8560009	14.29227	0.8309994	1	3	1	0.15	3134	77	46.06633	40.7435	2.856487	145.8377	137.8633	0.7363668	9.62724	272.6126
9/26/2014 3:46:42 PM	15:46:42	108	D	14	50	71.42857	36514.29	37	52.85714	18500	1033.394	90.46379	88.32288	14.2635	29.575	293.881	26.035	96.32519	0.7579994	14.29198	0.8409996	1	3	1	0.15	3161	76.6001	46.10203	40.3885	2.831598	145.4894	136.1341	0.7390597	9.662448	273.6096
9/26/2014 3:46:52 PM	15:46:52	118	D	14	50	72.85714	37244.57	36	54.28572	19000	1035.675	90.46379	88.34	14.2635	29.72	293.7019	26.355	96.41332	0.7880001	14.29201	0.8369999	1	3	1	0.15	3155	76.6001	46.13449	40.76851	2.85824	145.39	137.2108	0.7328466	9.581216	271.3094
9/26/2014 3:47:02 PM	15:47:02	128	D	14	50	71.42857	36514.29	36	52.85714	18500	1036.225	90.64008	88.32288	14.26312	30.175	293.7914	26.16	96.23705	0.8150005	14.29045	0.8320007	1	3	1	0.15	3137	76.7998	46.11042	40.56313	2.843916	145.4397	136.7641	0.7382067	9.651295	273.2938
9/26/2014 3:47:13 PM	15:47:13	0	D	14	51	72.85714	37244.57	37	52.85714	18500	1036.985	90.68414	88.32288	14.26312	30.175	293.7019	26.05499	96.28111	0.8290005	14.29153	0.8260002	1	3	1	0.15	3150	76.7998	45.9416	40.46812	2.837255	145.39	136.5273	0.7324561	9.576111	271.1648
9/26/2014 3:47:23 PM	15:47:23	0	D	14	51	72.85714	37244.57	37	52.85714	18500	1039.393	91.87405	88.33145	14.2635	29.91	294.284	26.27499	96.32519	0.7630005	14.29125	0.8360004	1	3	1	0.15	3144	76.6001	45.73425	40.5585	2.843517	145.7133	137.6671	0.7368516	9.633579	272.7921
9/26/2014 3:47:33 PM	15:47:33	0	D	14	51	72.85714	37244.57	37	52.85714	18500	1043.365	92.49104	88.32288	14.2635	29.925	294.7317	26.09	96.23705	0.7800007	14.29187	0.8239994	1	3	1	0.15	3134	76.3999	45.58878	40.3235	2.827041	145.9621	137.4567	0.73163	9.565311	270.859
9/26/2014 3:47:43 PM	15:47:43	0	D	14	51	72.85714	37244.57	37	51.42857	18000	1054.773	93.68095	88.32288	14.2635	29.925	295.672	26.47	96.36926	0.8320007	14.29187	0.8360004	1	3	1	0.15	3134	77.6001	46.06633	40.9185	2.868756	146.4845	140.0362	0.7355172	9.616133	272.2981
9/26/2014 3:47:53 PM	15:47:53	0	D	14	51	72.85714	37244.57	37	52.85714	18500	1049.872	94.47422	88.30579	14.2635	30.19	297.06	26.755	96.45739	0.8180008	14.29122	0.8390007	1	3	1	0.15	3166	77.2002	46.53669	41.05349	2.87822	147.2556	141.0111	0.7380709	9.64952	273.2435
9/26/2014 3:48:03 PM	15:48:03	0	D	14	52	74.28571	37974.86	40	55.71429	19500	1065.082	94.03352	88.32288	14.26388	30.235	298.5823	28.57001	96.58961	0.8759995	14.29749	0.9279995	1	3	1	0.15	3327	82.2002	52.07051	42.91888	3.008921	148.1013	145.8704	0.7782946	10.1754	288.1348
9/26/2014 3:48:13 PM	15:48:13	0	D	14	52	74.28571	37974.86	40	57.14286	20000	1067.532	94.342	88.32288	14.26388	30.235	301.4479	28.625	96.63368	0.9400005	14.29629	0.9200001	1	3	1	0.15	3395	82.3999	53.13477	42.57888	2.985085	149.6933	145.1693	0.7728047	10.10363	286.1024
9/26/2014 3:48:23 PM	15:48:23	0	D	14	52	74.28571	37974.86	40	57.14286	20000	1062.716	93.98943	88.31436	14.26312	30.045	303.597	28.22	96.63368	0.8990002	14.29363	0.9260006	1	3	1	0.15	3426	83.3999	54.53312	42.89812	3.007624	150.8873	145.9198	0.7752402	10.13547	287.0041
9/26/2014 3:48:33 PM	15:48:33	0	D	14	52	74.28571	37974.86	40	57.14286	20000	1057.984	93.01989	88.33145	14.26275	29.955	304.806	29.12	96.63368	0.875	14.29473	0.9300003	1	3	1	0.15	3432	83.6001	54.62862	43.03275	3.017143	151.5589	145.4236	0.7777741	10.1686	287.9421
9/26/2014 3:48:43 PM	15:48:43	0	D	14	52	74.28571	37974.86	40	57.14286	20000	1059.378	91.6537	88.33145	14.26275	29.955	306.1492	28.685	96.63368	0.8710003	14.29477	0.9330006	1	3	1	0.15	3447	83.2002	54.60492	43.01775	3.016091	152.3051	144.3481	0.7781907	10.17405	288.0964
9/26/2014 3:48:53 PM	15:48:53	0	D	14	52	74.28571	37974.86	41	58.57143	20500	1053.97	90.86044	88.34	14.26275	30.255	305.9701	28.69	96.72182	0.8880005	14.2947	0.9379997	1	3	1	0.15	3457	84	55.28978	43.00774	3.015389	152.2056	143.7202	0.7789485	10.18395	288.3769
9/26/2014 3:49:03 PM	15:49:03	0	D	14	52	74.28571	37974.86	41	57.14286	20000	1055.153	90.06715	88.34	14.26313	29.88	305.5223	28.91499	96.67775	0.8840008	14.29319	0.934	1	3	1	0.15	3449	84.3999	55.42444	43.42812	3.044783	151.9569	144.2541	0.7785521	10.17877	288.2302
9/26/2014 3:49:13 PM	15:49:13	0	D	14	52	74.28571	37974.86	40	57.14286	20000	1054.773	89.80274	88.34	14.26313	29.88	305.5671	28.72	96.58961	0.8729992	14.29507	0.934	1	3	1	0.15	3446	84	55.2452	43.16312	3.026203	151.9818	143.3375	0.7786431	10.17996	288.2639
9/26/2014 3:49:23 PM	15:49:23	0	D	14	55	78.57143	40165.71	45	64.28571	22500	1074.208	89.31796	88.36563	14.26312	30.06	309.955	32.955	96.41332	1.077999	14.29984	1.112	1	3	1	0.15	3826	93.3999	68.33027	47.26813	3.314009	154.4195	153.7133	0.8496787	11.10868	314.5622
9/26/2014 3:49:33 PM	15:49:33	0	D	14	53	75.71429	38705.14	45	64.28571	22500	1050.505	89.18575	88.34	14.26237	29.69501	313.9399	30.05	96.36926	0.9029999	14.29461	0.9750004	1	3	1	0.15	3827	92.7998	67.61946	44.10738	3.092569	156.5587	145.4096	0.7956713	10.40259	294.5679
9/26/2014 3:49:43 PM	15:49:43	0	D	14	53	75.71429	38705.14	42	60	21000	1065.124	89.97901	88.34	14.26237	29.69501	311.0296	29.965	96.14891	0.9370003	14.29692	0.9619999	1	3	1	0.15	3600	87.6001	60.04451	44.14238	3.095023	155.0164	146.1079	0.7893457	10.31989	292.2261
9/26/2014 3:49:53 PM	15:49:53	0	D	14	53	75.71429	38705.14	42	60	21000	1066.265	90.59601	88.35712	14.26275	29.52	309.955	29.715	96.01669	0.9449997	14.29687	0.9750004	1	3	1	0.15	3577	87	59.38853	44.00774	3.085502	154.4195	146.2158	0.7959671	10.40645	294.6774
9/26/2014 3:50:03 PM	15:50:03	0	D	14	54	75.71429	38705.14	42	60	21000	1065.8	90.46379	88.34857	14.26313	29.80499	310.0894	30.16499	96.14891	0.9330006	14.29659	1.011	1	3	1	0.15	3625	87.7998	60.59932	45.02312	3.15661	154.4941	148.8039	0.8083954	10.56894	299.2786
9/26/2014 3:50:13 PM	15:50:13	0	D	14	53	75.71429	38705.14	43	61.42857	21500	1060.603	89.14168	88.34857	14.26313	29.80499	309.8207	30.88	96.28111	1.002001	14.29771	1.01	1	3	1	0.15	3646	88.3999	61.22833	44.84813	3.144341	154.3448	147.3302	0.8103392	10.59435	299.9982
9/26/2014 3:50:23 PM	15:50:23	0	D	14	53	75.71429	38705.14	43	60	21000	1065.082	89.31796	88.35712	14.26275	30.455	309.5073	30.315	96.23705	0.8939991	14.29679	0.9820004	1	3	1	0.15	3629	88.2002	60.94284	44.47276	3.118105	154.1707	146.4776	0.7978545	10.43113	295.3762
9/26/2014 3:50:33 PM	15:50:33	0	D	14	53	75.71429	38705.14	43	60	21000	1067.786	89.89088	88.36563	14.26275	30.005	310.358	30.44501	96.14891	0.934	14.29495	1.000999	1	3	1	0.15	3628	88.3999	60.92605	44.75275	3.137737	154.6433	147.6559	0.8039325	10.51059	297.6263
9/26/2014 3:50:43 PM	15:50:43	4	E	15	53	75.71429	38705.14	43	61.42857	21500	1065.758	89.49424	88.36563	14.26275	30.005	310.6266	30.505	96.14891	0.9580002	14.29564	0.9890003	1	3	1	0.15	3638	87.7998	60.81664	44.87275	3.14615	154.7926	147.6681	0.8007117	10.46848	296.434
9/26/2014 3:50:53 PM	15:50:53	14	E	15	53	75.71429	38705.14	43	61.42857	21500	1064.617	89.00946	88.37421	14.26275	29.95	309.9998	30.67	96.32519	0.9430008	14.29791	0.9920006	1	3	1	0.15	3647	89.2002	61.66148	44.75275	3.137737	154.4444	146.9809	0.8054754	10.53076	298.1975
9/26/2014 3:51:03 PM	15:51:03	24	E	15	53	75.71429	38705.14	43	61.42857	21500	1062.758	88.74504	88.35712	14.26275	30.36	309.5073	30.33501	96.23705	0.9829998	14.29585	0.9899998	1	3	1	0.15	3641	88.7998	61.28281	44.60775	3.12757	154.1707	146.194	0.8034897	10.5048	297.4624
9/26/2014 3:51:13 PM	15:51:13	34	E	15	53	75.71429	38705.14	42	60	21000	1068.082	89.58238	88.35712	14.26275	30.36	309.9103	30.19	96.23705	0.9920006	14.29669	0.9860001	1	3	1	0.15	3619	87.7998	60.63696	44.88775	3.147201	154.3946	147.7752	0.8014823	10.47856	296.7192
9/26/2014 3:51:23 PM	15:51:23	44	E	15	53	75.71429	38705.14	42	60	21000	1064.955	89.58238	88.37421	14.262	30.595	310.0446	30.36	96.23705	0.9349995	14.2951	0.9850006	1	3	1	0.15	3628	88.2002	60.92605	44.83201	3.143459	154.4692	147.6347	0.7998291	10.45694	296.1072
9/26/2014 3:51:33 PM	15:51:33	54	E	15	53	75.71429	38705.14	43	61.42857	21500	1065.716	90.19937	88.34857	14.26237	30.925	310.2237	30.53999	96.41332	0.9349995	14.29729	1	1	3	1	0.15	3628	88	60.64947	44.73738	3.136741	154.5687	147.8546	0.8042067	10.51418	297.7279
9/26/2014 3:51:43 PM	15:51:43	64	E	15	53	75.71429	38705.14	43	60	21000	1067.152	90.28751	88.34857	14.26237	30.925	310.1789	30.36501	96.23705	0.9120007	14.29765	0.993	1	3	1	0.15	3622	88.2002	60.82529	44.41237	3.113953	154.5438	147.0615	0.803531	10.50534	297.4777
9/26/2014 3:51:53 PM	15:51:53	74	E	15	53	75.71429	38705.14	42	61.42857	21500	1068.166	90.1553	88.34	14.262	31.28999	310.2684	30.2	96.32519	0.9080009	14.29564	1.003	1	3	1	0.15	3624	88	60.72074	44.712	3.135044	154.5936	147.7569	0.8070271	10.55105	298.772
9/26/2014 3:52:03 PM	15:52:03	84	E	15	53	75.71429	38705.14	42	60	21000	1067.744	90.11123	88.34	14.26275	31.49001	310.2237	30.27	96.41332	0.9309998	14.29622	0.9810009	1	3	1	0.15	3618	87.3999	60.20682	44.43275	3.1153	154.5687	146.9778	0.7981029	10.43438	295.4681
9/26/2014 3:52:13 PM	15:52:13	94	E	15	53	75.71429	38705.14	43	61.42857	21500	1066.096	90.19937	88.34	14.26275	31.49001	310.1789	30.22	96.36926	0.8969994	14.29719	0.9899998	1	3	1	0.15	3618	88.3999	60.62021	44.40275	3.113197	154.5438	146.9655	0.8018171	10.48293	296.8432
9/26/2014 3:52:23 PM	15:52:23	104	E	15	53	75.71429	38705.14	43	60	21000	1060.392	90.28751	88.34857	14.26275	31.375	309.9103	30.17999	96.50147	0.9370003	14.29741	1.004999	1	3	1	0.15	3628	88.2002	60.78776	44.62275	3.128622	154.3946	147.6159	0.8057533	10.5344	298.3004
9/26/2014 3:52:33 PM	15:52:33	114	E	15	53	75.71429	38705.14	43	61.42857	21500	1067.913	89.62645	88.34857	14.26237	31.52	309.6864	30.355	96.41332	0.9300003	14.29613	0.9909992	1	3	1	0.15	3609	87.7998	60.33185	44.68237	3.132885	154.2702	147.2708	0.8029593	10.49787	297.266
9/26/2014 3:52:43 PM	15:52:43	124	E	15	53	75.71429	38705.14	42	60	21000	1067.532	89.0976	88.34857	14.26237	31.52	309.6864	29.92999	96.41332	0.9290009	14.29599	0.9740009	1	3	1	0.15	3609	88	60.46941	44.34738	3.109397	154.2702	145.9801	0.7952449	10.39701	294.41
9/26/2014 3:52:53 PM	15:52:53	134	E	15	53	75.71429	38705.14	42	60	21000	1069.476	90.33158	88.34	14.26275	30.22	309.955	30.44	96.54554	0.9699993	14.29669	0.9869995	1	3	1	0.15	3599	87.3999	59.89064	44.17275	3.097071	154.4195	146.4547	0.8004621	10.46522	296.3416
9/26/2014 3:53:24 PM	15:53:24	0	E	15	53	75.71429	38705.14	42	60	21000	1060.646	89.36202	88.31436	14.26275	30.16	309.373	30.22501	96.50147	0.9610004	14.29741	0.9869995	1	3	1	0.15	3620	87.6001	60.37809	44.63274	3.129322	154.0961	146.9343	0.8017078	10.48151	296.8027
9/26/2014 3:53:34 PM	15:53:34	0	E	15	53	75.71429	38705.14	42	60	21000	1061.068	88.87725	88.33145	14.26275	29.92	309.3282	30.32001	96.45739	0.9090004	14.29831	0.9890003	1	3	1	0.15	3625	88.3999	60.87567	44.49274	3.119507	154.0712	146.1935	0.80139	10.47735	296.6851
9/26/2014 3:53:44 PM	15:53:44	8	E	16	53	75.71429	38705.14	42	60	21000	1060.181	88.74504	88.33145	14.26275	29.92	309.0595	30.42999	96.32519	0.9260006	14.29531	0.9920006	1	3	1	0.15	3625	88.3999	61.01351	44.78774	3.14019	153.922	146.8705	0.8045992	10.51931	297.8732
9/26/2014 3:53:54 PM	15:53:54	18	E	16	53	75.71429	38705.14	42	60	21000	1060.984	88.96539	88.34	14.26275	30.16499	309.0148	30.24001	96.14891	0.9549999	14.29629	0.9799995	1	3	1	0.15	3624	89	61.54889	44.69274	3.133529	153.8971	146.789	0.7978915	10.43161	295.3899
9/26/2014 3:54:04 PM	15:54:04	28	E	16	53	75.71429	38705.14	43	60	21000	1065.293	89.14168	88.29724	14.26275	30.485	309.2386	30.675	95.97262	1.004	14.29589	0.9860001	1	3	1	0.15	3612	88.6001	60.93238	44.39275	3.112496	154.0215	146.131	0.8004566	10.46515	296.3395
9/26/2014 3:54:14 PM	15:54:14	38	E	16	53	75.71429	38705.14	42	60	21000	1068.378	90.59601	88.29724	14.26275	30.485	309.7759	30.23	95.84042	0.9330006	14.2956	0.9689999	1	3	1	0.15	3591	88	60.03094	44.32775	3.107939	154.32	147.0692	0.7964875	10.41326	294.8701
9/26/2014 3:54:24 PM	15:54:24	48	E	16	53	75.71429	38705.14	42	61.42857	21500	1066.518	90.46379	88.28015	14.26275	30.645	310.1789	30.05499	95.97262	0.8990002	14.29683	0.9729996	1	3	1	0.15	3606	87.6001	60.14458	44.46775	3.117754	154.5438	147.3401	0.7984431	10.43882	295.5941
9/26/2014 3:54:34 PM	15:54:34	58	E	16	53	75.71429	38705.14	42	60	21000	1060.941	90.28751	88.27161	14.262	30.8	310.0446	30.58	95.97262	0.9249992	14.29463	0.9920006	1	3	1	0.15	3618	88	60.75812	44.497	3.119969	154.4692	147.2892	0.8028491	10.49643	297.2253
9/26/2014 3:54:44 PM	15:54:44	68	E	16	53	75.71429	38705.14	43	61.42857	21500	1063.012	89.97901	88.27161	14.262	30.8	309.6416	30.52499	95.97262	0.9529991	14.29377	0.9850006	1	3	1	0.15	3623	88	60.70399	44.51701	3.121372	154.2453	147.1063	0.7999693	10.45878	296.1591
9/26/2014 3:54:54 PM	15:54:54	78	E	16	53	75.71429	38705.14	42	60	21000	1065.04	89.97901	88.22885	14.26237	30.55499	309.5521	30.42999	96.14891	0.9449997	14.29754	1	1	3	1	0.15	3624	88	60.72074	44.74237	3.137091	154.1956	147.6991	0.8060023	10.53765	298.3926
9/26/2014 3:55:04 PM	15:55:04	88	E	16	53	75.71429	38705.14	43	61.42857	21500	1062.885	89.89088	88.22031	14.26275	30.69501	309.4177	30.50999	96.14891	0.9570007	14.29557	0.9839993	1	3	1	0.15	3627	88.3999	60.90925	44.45776	3.117054	154.121	146.8757	0.7970759	10.42095	295.0879
9/26/2014 3:55:14 PM	15:55:14	98	E	16	53	75.71429	38705.14	42	60	21000	1071.42	90.86044	88.22031	14.26275	30.69501	309.9103	30	96.10483	0.8430004	14.29452	0.9769993	1	3	1	0.15	3609	87.2002	60.05706	44.35775	3.110042	154.3946	147.351	0.7966421	10.41528	294.9273
9/26/2014 3:55:24 PM	15:55:24	108	E	16	53	75.71429	38705.14	42	61.42857	21500	1069.899	91.60963	88.21176	14.26275	30.86	310.7162	30.05499	96.10483	0.9179993	14.29553	0.9799995	1	3	1	0.15	3603	87.3999	59.82021	44.04775	3.088307	154.8423	147.0955	0.7979148	10.43192	295.3985
9/26/2014 3:55:34 PM	15:55:34	118	E	16	53	75.71429	38705.14	43	60	21000	1067.913	92.22661	88.20319	14.26237	30.63499	310.8505	30.375	96.23705	0.9489994	14.29555	0.9829998	1	3	1	0.15	3609	87.3999	59.91982	44.69737	3.133936	154.9169	149.3007	0.7990189	10.44635	295.8072
9/26/2014 3:55:44 PM	15:55:44	128	E	16	53	75.71429	38705.14	43	61.42857	21500	1062.969	91.08078	88.20319	14.26237	30.63499	310.3132	30.22501	96.23705	0.9909992	14.29588	0.9780006	1	3	1	0.15	3632	87.7998	60.85478	44.44237	3.116057	154.6185	147.7474	0.7994416	10.45188	295.9637
9/26/2014 3:56:16 PM	15:56:16	0	E	16	53	75.71429	38705.14	43	61.42857	21500	1060.265	90.06715	88.16043	14.26237	30.33501	309.9103	30.87	96.36926	0.9430008	14.2966	0.9820004	1	3	1	0.15	3629	88.6001	61.35715	44.59738	3.126925	154.3946	147.3834	0.7985578	10.44032	295.6365
9/26/2014 3:56:26 PM	15:56:26	8	E	17	53	75.71429	38705.14	42	60	21000	1061.786	89.53831	88.16043	14.26237	30.33501	309.4625	30.565	96.32519	0.9060001	14.29356	0.9799995	1	3	1	0.15	3635	88.7998	61.32037	44.52237	3.121666	154.1459	146.7804	0.797684	10.4289	295.313
9/26/2014 3:56:36 PM	15:56:36	18	E	17	53	75.71429	38705.14	43	61.42857	21500	1060.561	89.05354	88.16901	14.262	29.97	309.3282	29.825	96.06076	0.8990002	14.2951	0.9890003	1	3	1	0.15	3647	88	61.10611	44.762	3.13855	154.0712	147.0452	0.8019814	10.48508	296.904
9/26/2014 3:56:46 PM	15:56:46	28	E	17	53	75.71429	38705.14	43	61.42857	21500	1058.786	88.6569	88.16901	14.262	29.97	308.97	30.53999	96.10483	0.9130001	14.29687	0.9969997	1	3	1	0.15	3644	88.7998	61.61076	44.792	3.140654	153.8722	146.8204	0.8044	10.5167	297.7994
9/26/2014 3:56:56 PM	15:56:56	38	E	17	53	75.71429	38705.14	43	61.42857	21500	1061.068	88.74504	88.16043	14.262	29.785	308.8804	30.16499	96.14891	0.9060001	14.29568	0.9860001	1	3	1	0.15	3641	88.6001	61.28281	44.772	3.139251	153.8225	146.8353	0.8003191	10.46335	296.2886
9/26/2014 3:57:06 PM	15:57:06	48	E	17	53	75.71429	38705.14	42	60	21000	1063.012	88.83318	88.16901	14.262	29.72	308.7909	30.495	95.92855	0.9249992	14.2963	0.9850006	1	3	1	0.15	3642	88.3999	61.29964	44.67699	3.13259	153.7727	146.6525	0.7988774	10.4445	295.7549
9/26/2014 3:57:16 PM	15:57:16	58	E	17	53	75.71429	38705.14	42	61.42857	21500	1061.744	88.52469	88.16043	14.262	29.42999	308.9252	30.765	95.92855	0.9150009	14.29572	1.002001	1	3	1	0.15	3644	88.6001	61.4722	44.857	3.145211	153.8473	146.89	0.8069152	10.54959	298.7306
9/26/2014 3:57:26 PM	15:57:26	68	E	17	53	75.71429	38705.14	42	60	21000	1064.659	88.83318	88.16043	14.262	29.42999	309.0148	30.25999	95.75226	0.8920002	14.29738	0.9890003	1	3	1	0.15	3638	88.7998	61.37099	44.647	3.130486	153.8971	146.5734	0.7998236	10.45687	296.1052
9/26/2014 3:57:36 PM	15:57:36	78	E	17	53	75.71429	38705.14	43	61.42857	21500	1064.068	89.53831	88.16043	14.262	29.655	309.1491	30.545	95.75226	0.9459991	14.29536	0.9950008	1	3	1	0.15	3630	88.7998	61.51242	44.762	3.13855	153.9717	147.4164	0.8042291	10.51447	297.7361
9/26/2014 3:57:46 PM	15:57:46	88	E	17	53	75.71429	38705.14	43	61.42857	21500	1064.828	90.06715	88.16043	14.262	29.655	309.7759	30.13	95.70819	0.9349995	14.29695	0.9839993	1	3	1	0.15	3630	88.3999	60.95964	44.65701	3.131188	154.32	147.5442	0.8026947	10.49441	297.1681
9/26/2014 3:57:56 PM	15:57:56	98	E	17	53	75.71429	38705.14	43	61.42857	21500	1062.209	89.97901	88.15192	14.262	29.425	309.7759	30.39999	95.70819	0.9430008	14.29572	0.9939995	1	3	1	0.15	3641	88.7998	61.69882	45.042	3.158183	154.32	148.491	0.8038532	10.50956	297.597
9/26/2014 3:58:06 PM	15:58:06	108	E	17	53	75.71429	38705.14	43	61.42857	21500	1060.561	89.14168	88.16043	14.26162	30.245	309.5073	30.77499	95.84042	0.9389992	14.29527	0.9869995	1	3	1	0.15	3650	89	61.85133	44.44162	3.116168	154.1707	146.2697	0.8009388	10.47145	296.518
9/26/2014 3:58:16 PM	15:58:16	118	E	17	53	75.71429	38705.14	43	61.42857	21500	1059.674	88.92133	88.16901	14.262	30.35001	309.4177	30.875	95.75226	0.9489994	14.29662	0.9899998	1	3	1	0.15	3644	89.3999	62.02712	45.107	3.16274	154.121	147.8499	0.8022524	10.48863	297.0044
9/26/2014 3:58:26 PM	15:58:26	128	E	17	53	75.71429	38705.14	43	61.42857	21500	1060.857	88.87725	88.16901	14.262	30.35001	309.1491	30.67999	95.62006	0.9379997	14.2977	0.9990005	1	3	1	0.15	3651	88	61.17313	45.007	3.155728	153.9717	147.554	0.8059841	10.53742	298.3859
9/26/2014 3:58:36 PM	15:58:36	0	E	17	53	75.71429	38705.14	43	61.42857	21500	1056.421	88.39248	88.17755	14.26237	30.825	308.9252	30.42	95.66412	0.9130001	14.29779	0.9899998	1	3	1	0.15	3656	88.3999	61.81365	44.85738	3.145155	153.8473	146.7867	0.8023419	10.4898	297.0375
9/26/2014 3:58:46 PM	15:58:46	0	E	17	53	75.71429	38705.14	43	61.42857	21500	1062.631	88.43655	88.17755	14.26237	30.985	308.7909	30.19	95.53191	0.9109993	14.29421	0.9979992	1	3	1	0.15	3645	88.7998	61.62767	44.70238	3.134287	153.7727	146.4127	0.8055497	10.53174	298.225
9/26/2014 3:58:56 PM	15:58:56	0	E	17	53	75.71429	38705.14	43	60	21000	1068.124	89.53831	88.17755	14.26237	30.985	309.3282	29.84	95.66412	0.8969994	14.2966	0.9860001	1	3	1	0.15	3631	87	60.28509	44.53238	3.122368	154.0712	146.8069	0.8006757	10.46801	296.4207
9/26/2014 3:59:06 PM	15:59:06	0	E	17	53	75.71429	38705.14	42	61.42857	21500	1065.589	89.75867	88.16901	14.26237	31.11501	309.7759	30.85001	95.70819	0.8530006	14.29624	0.9979992	1	3	1	0.15	3641	88.3999	61.14436	45.00238	3.155322	154.32	148.2148	0.8022626	10.48876	297.0081
9/26/2014 3:59:16 PM	15:59:16	0	E	17	58	82.85715	42356.57	48	68.57143	24000	1098.038	88.92133	88.16901	14.262	31	311.7908	38.16499	95.97262	1.323999	14.30707	1.375	1	3	1	0.15	4115	99.6001	78.03615	52.39201	3.673539	155.4393	165.9115	0.9430536	12.32946	349.1308
9/26/2014 3:59:26 PM	15:59:26	0	E	17	57	82.85715	42356.57	53	75.71429	26500	1093.475	88.30433	88.16901	14.262	31	329.7453	38.31	95.79634	1.277	14.3092	1.361	1	3	1	0.15	4518	109	93.7646	52.882	3.707895	165.4141	166.5647	0.9405119	12.29623	348.1898
9/26/2014 3:59:36 PM	15:59:36	0	E	17	55	78.57143	40165.71	50	71.42857	25000	1093.855	90.59601	88.1348	14.26162	29.63499	332.4318	33.75999	95.66412	1.024	14.30047	1.111	1	3	1	0.15	4203	101.3999	81.14526	48.00662	3.36614	166.9066	156.5848	0.8498859	11.11139	314.6389
9/26/2014 3:59:46 PM	15:59:46	0	E	17	55	78.57143	40165.71	48	68.57143	24000	1090.095	92.13847	88.11768	14.26162	29.455	332.2975	33.78999	95.53191	1.047001	14.30105	1.115999	1	3	1	0.15	4074	98.7998	76.79314	47.83163	3.35387	166.8319	157.3481	0.8579874	11.21731	317.6382
9/26/2014 3:59:56 PM	15:59:56	0	E	17	55	78.57143	40165.71	47	67.14285	23500	1082.236	91.03671	88.11768	14.26162	29.455	330.596	33.655	95.57599	1.113001	14.30127	1.141001	1	3	1	0.15	4059	97.2002	74.96473	47.74162	3.347558	165.8867	156.2616	0.8613577	11.26137	318.8859
9/26/2014 4:00:06 PM	16:00:06	0	E	17	55	78.57143	40165.71	48	67.14285	23500	1077.166	90.1553	88.10916	14.262	29.685	329.9244	34.02499	95.44378	1.066999	14.30013	1.15	1	3	1	0.15	4065	98.2002	75.84952	48.22201	3.381153	165.5136	156.7772	0.8648127	11.30654	320.165
9/26/2014 4:00:16 PM	16:00:16	0	E	17	55	78.57143	40165.71	48	67.14285	23500	1075.138	89.53831	88.09204	14.262	29.96001	329.2528	34.505	95.44378	1.063999	14.30136	1.139	1	3	1	0.15	4052	98.3999	75.7614	48.167	3.377296	165.1405	156.1572	0.860708	11.25287	318.6454
9/26/2014 4:00:26 PM	16:00:26	9	F	18	55	78.57143	40165.71	47	67.14285	23500	1080.588	89.22981	88.09204	14.262	29.96001	328.7155	33.875	95.31156	1.082001	14.30085	1.141001	1	3	1	0.15	4045	97.6001	75.32214	48.06699	3.370284	164.842	155.6659	0.862296	11.27364	319.2333
9/26/2014 4:00:36 PM	16:00:36	19	F	18	55	78.57143	40165.71	47	67.14285	23500	1083.672	90.06715	88.08353	14.262	30.235	328.8051	33.66499	95.26749	1.049	14.29778	1.128	1	3	1	0.15	4037	97.6001	74.8658	47.967	3.363273	164.8917	156.0692	0.8565903	11.19904	317.1209
9/26/2014 4:00:46 PM	16:00:46	29	F	18	55	78.57143	40165.71	48	68.57143	24000	1079.997	90.19937	88.08353	14.262	30.235	328.8946	33.87	95.22342	1.075001	14.30099	1.139	1	3	1	0.15	4033	98	75.25243	47.882	3.357313	164.9415	155.9589	0.8608521	11.25476	318.6987
9/26/2014 4:00:56 PM	16:00:56	39	F	18	55	78.57143	40165.71	47	67.14285	23500	1081.644	90.50787	88.10059	14.26237	30.205	329.1633	33.52	95.09122	1.055	14.3005	1.131001	1	3	1	0.15	4034	98	75.27108	48.09738	3.372326	165.0907	156.7374	0.8579347	11.21662	317.6187
9/26/2014 4:01:06 PM	16:01:06	49	F	18	55	78.57143	40165.71	48	68.57143	24000	1079.151	90.55194	88.09204	14.26162	30.53999	329.6558	33.595	95.17935	1.125999	14.29928	1.139	1	3	1	0.15	4045	97.3999	75.47633	47.80662	3.352116	165.3643	156.0474	0.860842	11.25463	318.695
9/26/2014 4:01:16 PM	16:01:16	59	F	18	55	78.57143	40165.71	47	67.14285	23500	1077.377	90.24344	88.09204	14.26162	30.53999	329.5215	33.72501	95.04713	1.084999	14.30188	1.136	1	3	1	0.15	4047	98.2002	75.82179	48.49662	3.400498	165.2897	157.5349	0.8632703	11.28637	319.594
9/26/2014 4:01:26 PM	16:01:26	69	F	18	55	78.57143	40165.71	47	67.14285	23500	1086.25	90.81635	88.07495	14.26237	30.61	329.7453	33.53	95.13528	1.003	14.30108	1.101999	1	3	1	0.15	4016	96	73.25285	47.71738	3.345682	165.4141	156.0223	0.8468853	11.07215	313.528
9/26/2014 4:01:36 PM	16:01:36	79	F	18	55	78.57143	40165.71	47	67.14285	23500	1089.207	92.57918	88.10059	14.262	29.67	330.1931	33.155	95.17935	1.055	14.30154	1.105	1	3	1	0.15	3997	96	72.7543	47.727	3.346445	165.6628	157.4242	0.8480114	11.08688	313.9449
9/26/2014 4:01:46 PM	16:01:46	89	F	18	55	78.57143	40165.71	48	68.57143	24000	1080.673	92.27069	88.07495	14.26162	29.67	330.1035	33.8	95.35563	1.099001	14.30065	1.132	1	3	1	0.15	4030	96.6001	73.96867	48.39163	3.393136	165.6131	158.8598	0.8581196	11.21903	317.6871
9/26/2014 4:01:56 PM	16:01:56	99	F	18	55	80	40896	48	68.57143	24000	1077.673	91.52148	88.07495	14.26162	29.67	329.5662	33.895	95.48785	1.014	14.3012	1.131001	1	3	1	0.15	4039	97.6001	75.05684	48.35162	3.390331	165.3146	158.1734	0.857657	11.21299	317.5158
9/26/2014 4:02:06 PM	16:02:06	109	F	18	55	78.57143	40165.71	47	67.14285	23500	1075.898	91.08078	88.08353	14.26125	29.74001	329.2528	34.03	95.44378	1.007	14.29934	1.136999	1	3	1	0.15	4039	97.3999	74.90289	48.03125	3.367955	165.1405	157.0285	0.8598731	11.24196	318.3362
9/26/2014 4:02:16 PM	16:02:16	119	F	18	55	78.57143	40165.71	47	67.14285	23500	1073.997	90.99264	88.08353	14.26125	29.74001	328.8946	33.89	95.35563	1.042999	14.30097	1.131001	1	3	1	0.15	4040	97.6001	75.07543	47.99625	3.365501	164.9415	156.8717	0.8577392	11.21406	317.5463
9/26/2014 4:02:26 PM	16:02:26	129	F	18	55	78.57143	40165.71	47	67.14285	23500	1075.307	90.9045	88.07495	14.26125	29.625	328.7603	33.50999	95.35563	1.024	14.29797	1.125999	1	3	1	0.15	4032	97	74.61976	47.80625	3.352178	164.8668	156.3247	0.8550069	11.17834	316.5348
9/26/2014 4:02:36 PM	16:02:36	0	F	18	55	78.57143	40165.71	47	67.14285	23500	1079.49	90.72821	88.07495	14.26125	29.47501	328.7603	33.55499	95.35563	1.084999	14.29699	1.112	1	3	1	0.15	4030	97.7998	74.8896	48.29125	3.386186	164.8668	157.4048	0.8557283	11.18777	316.8018
9/26/2014 4:02:46 PM	16:02:46	0	F	18	55	78.57143	40165.71	47	67.14285	23500	1074.546	90.64008	88.09204	14.262	29.125	328.8051	33.605	95.26749	1.018	14.30078	1.139	1	3	1	0.15	4040	96.7998	74.30621	48.397	3.393423	164.8917	157.5938	0.8589512	11.22991	317.995
9/26/2014 4:02:56 PM	16:02:56	0	F	18	55	78.57143	40165.71	47	67.14285	23500	1077.377	90.55194	88.09204	14.262	29.125	328.8051	33.765	95.26749	1.082001	14.30078	1.129	1	3	1	0.15	4036	96.7998	74.53996	48.23701	3.382205	164.8917	157.1248	0.8570445	11.20498	317.2891
9/26/2014 4:03:06 PM	16:03:06	0	F	18	55	78.57143	40165.71	47	67.14285	23500	1076.743	90.50787	88.06641	14.26088	28.75999	328.6707	34.02499	95.13528	0.9629993	14.29955	1.125	1	3	1	0.15	4037	96.7998	74.55842	47.56587	3.33541	164.8171	155.4118	0.8556086	11.1862	316.7575
9/26/2014 4:03:16 PM	16:03:16	10	F	19	55	78.57143	40165.71	47	67.14285	23500	1074.842	90.41972	88.06641	14.26088	28.75999	328.7603	33.91499	95.09122	1.054001	14.29951	1.114	1	3	1	0.15	4045	97.3999	75.01416	48.27588	3.385197	164.8668	157.1282	0.8529862	11.15192	315.7866
9/26/2014 4:03:26 PM	16:03:26	20	F	19	55	78.57143	40165.71	47	67.14285	23500	1075.518	90.1553	88.05783	14.26125	28.36	328.8946	34.13499	95.09122	1.016001	14.29797	1.136999	1	3	1	0.15	4051	98.3999	75.89674	47.86625	3.356385	164.9415	155.8912	0.8601205	11.24519	318.4279
9/26/2014 4:03:36 PM	16:03:36	30	F	19	55	78.57143	40165.71	48	68.57143	24000	1076.405	90.02309	88.04929	14.26125	28.35001	328.8946	34.105	94.95899	1.134001	14.30003	1.132	1	3	1	0.15	4052	97	74.681	48.21125	3.380577	164.9415	156.6532	0.8584089	11.22281	317.7942
9/26/2014 4:03:46 PM	16:03:46	40	F	19	55	80	40896	47	67.14285	23500	1076.025	90.19937	88.04929	14.26125	28.35001	329.0737	33.98	95.00306	1.045	14.30129	1.136999	1	3	1	0.15	4052	98	75.29842	48.21125	3.380577	165.041	156.7911	0.8602913	11.24743	318.4911
9/26/2014 4:03:56 PM	16:03:56	50	F	19	55	78.57143	40165.71	47	67.14285	23500	1074.25	89.36202	88.06641	14.2605	28.37	329.2976	33.97501	94.82679	1.039	14.29866	1.127001	1	3	1	0.15	4055	98	75.66293	48.58549	3.406998	165.1653	157.0751	0.8565621	11.19867	317.1105
9/26/2014 4:04:06 PM	16:04:06	60	F	19	55	78.57143	40165.71	47	67.14285	23500	1075.898	90.19937	88.05783	14.2605	28.355	329.208	33.83	94.73865	1.082001	14.3008	1.134001	1	3	1	0.15	4053	97.6001	75.16252	48.3055	3.387363	165.1156	157.033	0.8559447	11.1906	316.8819
9/26/2014 4:04:16 PM	16:04:16	70	F	19	55	78.57143	40165.71	48	68.57143	24000	1080.335	91.43334	88.05783	14.2605	28.355	329.4767	33.845	94.73865	1.003	14.29772	1.115999	1	3	1	0.15	4033	97	74.48454	47.8105	3.352653	165.2648	156.7542	0.8489933	11.09972	314.3084
9/26/2014 4:04:26 PM	16:04:26	80	F	19	55	78.57143	40165.71	47	67.14285	23500	1085.447	92.4029	88.02365	14.2605	28.24001	330.1483	33.75	94.60643	1.084	14.29772	1.115	1	3	1	0.15	4020	97.6001	74.70377	48.24049	3.382805	165.6379	158.5938	0.8521612	11.14113	315.4812
9/26/2014 4:04:36 PM	16:04:36	90	F	19	55	78.57143	40165.71	47	67.14285	23500	1083.419	92.88767	88.0322	14.2605	28.2	330.1931	33.72501	94.78271	1.075001	14.297	1.129999	1	3	1	0.15	4020	98.2002	75.16309	47.61549	3.338978	165.6628	157.3947	0.8523707	11.14387	315.5588
9/26/2014 4:04:46 PM	16:04:46	100	F	19	55	78.57143	40165.71	48	68.57143	24000	1078.222	92.27069	88.0322	14.2605	28.2	330.3274	33.955	94.78271	0.9909992	14.29505	1.129999	1	3	1	0.15	4048	97.7998	75.22409	48.33051	3.389117	165.7374	158.7162	0.8576174	11.21247	317.5012
9/26/2014 4:04:56 PM	16:04:56	110	F	19	55	78.57143	40165.71	47	68.57143	24000	1077.208	91.69777	88.0322	14.26013	28.605	330.2826	34.27	94.73865	1.042999	14.298	1.129999	1	3	1	0.15	4061	98	76.08409	48.28013	3.385673	165.7126	158.1449	0.8535891	11.1598	316.0099
9/26/2014 4:05:06 PM	16:05:06	120	F	19	56	78.57143	40165.71	47	67.14285	23500	1077.842	91.03671	88.02365	14.26012	30.22501	329.8796	34	94.87086	1	14.29785	1.138	1	3	1	0.15	4057	98.7998	76.31805	48.43012	3.396192	165.4887	158.0029	0.86068	11.25251	318.635
9/26/2014 4:05:16 PM	16:05:16	130	F	19	55	78.57143	40165.71	48	68.57143	24000	1077.715	90.59601	88.0322	14.26012	29.905	329.4319	33.88	94.95899	1.114	14.29836	1.127001	1	3	1	0.15	4051	97.6001	75.12543	48.21513	3.381115	165.2399	157.1204	0.856446	11.19715	317.0675
9/26/2014 4:05:26 PM	16:05:26	0	F	19	55	78.57143	40165.71	48	68.57143	24000	1076.828	91.08078	88.0322	14.26012	29.905	329.3871	33.58501	94.78271	1.004	14.29941	1.139	1	3	1	0.15	4043	98	75.43902	48.10513	3.373402	165.2151	157.2236	0.8604074	11.24894	318.5341
9/26/2014 4:05:36 PM	16:05:36	0	F	19	55	78.57143	40165.71	47	67.14285	23500	1078.602	91.47741	88.00656	14.26088	29.10001	329.3871	33.925	94.78271	1.061001	14.29879	1.125999	1	3	1	0.15	4032	98.3999	75.54076	48.36587	3.391508	165.2151	158.1808	0.8562293	11.19432	316.9873
9/26/2014 4:05:46 PM	16:05:46	0	F	19	55	78.57143	40165.71	48	68.57143	24000	1081.391	91.82998	88.02365	14.26162	28.89999	329.7901	33.215	94.78271	1.025999	14.29928	1.128	1	3	1	0.15	4034	97.3999	74.65677	48.03662	3.368243	165.4389	157.6241	0.8570089	11.20451	317.2759
9/26/2014 4:05:56 PM	16:05:56	8	F	20	55	78.57143	40165.71	47	68.57143	24000	1076.701	91.87405	88.02365	14.26162	28.89999	329.7901	33.765	94.91492	1.014	14.30004	1.131001	1	3	1	0.15	4037	98.3999	75.63445	48.48162	3.399446	165.4389	158.7745	0.8603147	11.24773	318.4998
9/26/2014 4:06:06 PM	16:06:06	18	F	20	55	78.57143	40165.71	47	67.14285	23500	1078.011	91.87405	87.99799	14.26162	29.42999	330.0587	33.86501	95.04713	1.045	14.29986	1.136999	1	3	1	0.15	4041	98	75.4017	48.18663	3.378762	165.5882	158.0355	0.8602018	11.24626	318.458
9/26/2014 4:06:16 PM	16:06:16	28	F	20	55	78.57143	40165.71	48	68.57143	24000	1078.645	91.56557	88.01511	14.26088	29.58501	329.6558	33.485	95.04713	1.068001	14.29745	1.128	1	3	1	0.15	4046	97.6001	75.0327	47.99588	3.365563	165.3643	157.3214	0.8567351	11.20093	317.1745
9/26/2014 4:06:26 PM	16:06:26	38	F	20	55	78.57143	40165.71	47	67.14285	23500	1078.983	91.52148	88.01511	14.26088	29.58501	329.8349	33.875	95.22342	1.107	14.29803	1.121	1	3	1	0.15	4041	97.3999	75.09401	48.04588	3.369069	165.4638	157.4127	0.8558619	11.18952	316.8513
9/26/2014 4:06:36 PM	16:06:36	48	F	20	55	78.57143	40165.71	47	67.14285	23500	1077.884	91.12485	88.00656	14.26087	29.755	329.5215	33.67	95.17935	0.9860001	14.29882	1.118999	1	3	1	0.15	4043	96.6001	74.20728	47.75587	3.348734	165.2897	156.3726	0.8532523	11.1554	315.8852
9/26/2014 4:06:46 PM	16:06:46	58	F	20	55	78.57143	40165.71	47	67.14285	23500	1090.813	92.44697	88.00656	14.26087	29.755	329.7005	33.485	95.09122	1.028	14.29676	1.104	1	3	1	0.15	4005	96	73.20486	47.57087	3.335761	165.3892	156.935	0.8490906	11.10099	314.3445
9/26/2014 4:06:56 PM	16:06:56	68	F	20	55	78.57143	40165.71	47	67.14285	23500	1079.532	92.7114	87.98087	14.26088	29.5	330.2826	33.69	95.3997	1.069	14.29741	1.132	1	3	1	0.15	4025	98	75.40962	48.20088	3.379938	165.7126	158.7323	0.8579845	11.21727	317.6371
9/26/2014 4:07:06 PM	16:07:06	78	F	20	55	78.57143	40165.71	47	67.14285	23500	1089.165	93.46059	87.99799	14.26088	29.27499	330.5513	33.74001	95.3997	1.006001	14.29886	1.122999	1	3	1	0.15	4009	96.6001	73.73604	47.86587	3.356447	165.8618	158.4726	0.8519621	11.13853	315.4075
9/26/2014 4:07:16 PM	16:07:16	88	F	20	55	78.57143	40165.71	47	67.14285	23500	1086.757	93.68095	87.99799	14.26088	29.27499	330.4617	33.23	95.31156	1.07	14.29922	1.108999	1	3	1	0.15	4006	96.7998	73.83319	47.46087	3.328048	165.8121	157.6163	0.8489796	11.09954	314.3033
9/26/2014 4:07:26 PM	16:07:26	98	F	20	55	78.57143	40165.71	47	67.14285	23500	1087.898	94.342	88.02365	14.26125	29	330.8199	33.595	95.3997	1.02	14.29681	1.115999	1	3	1	0.15	4001	96.2002	73.13175	47.66625	3.342361	166.0111	158.6506	0.8518785	11.13744	315.3766
9/26/2014 4:07:36 PM	16:07:36	108	F	20	55	78.57143	40165.71	47	67.14285	23500	1086.165	94.60643	88.02365	14.26163	29.095	330.9543	33.75	95.53191	1.018999	14.2982	1.106001	1	3	1	0.15	4001	96.3999	73.58891	47.71162	3.345455	166.0857	158.9688	0.853357	11.15677	315.9239
9/26/2014 4:07:46 PM	16:07:46	118	F	20	55	78.57143	40165.71	47	67.14285	23500	1082.616	94.25386	88.02365	14.26087	29.235	330.2826	33.58501	95.53191	1.039	14.29597	1.1	1	3	1	0.15	3972	96.2002	72.90411	47.56087	3.33506	165.7126	158.3171	0.8456609	11.05615	313.0747
9/26/2014 4:07:56 PM	16:07:56	128	F	20	55	78.57143	40165.71	46	65.71429	23000	1079.954	92.62326	88.02365	14.26087	29.235	329.1185	32.955	95.57599	1.007999	14.29633	1.097	1	3	1	0.15	3957	97	73.08091	47.57587	3.336112	165.0658	157.085	0.8444787	11.04069	312.6371
9/26/2014 4:08:58 PM	16:08:58	0	F	20	55	78.57143	40165.71	46	65.71429	23000	1078.729	92.13847	87.97235	14.26125	30.64	327.4171	32.97	95.75226	0.9720001	14.29844	1.086	1	3	1	0.15	3953	95	71.35107	47.24125	3.31256	164.1206	155.8538	0.8401666	10.98432	311.0407
9/26/2014 4:09:08 PM	16:09:08	0	F	20	52	74.28571	37974.86	43	61.42857	21500	1043.365	92.31477	87.99799	14.26162	29.94	326.2977	28.14	95.84042	0.8309994	14.29173	0.8719997	1	3	1	0.15	3696	90.2002	63.47543	42.44162	2.975932	163.4987	143.2796	0.7528465	9.842695	278.7136
9/26/2014 4:09:18 PM	16:09:18	0	F	20	51	72.85714	37244.57	39	55.71429	19500	1045.689	93.10803	87.96381	14.26125	30.505	317.8801	26.925	95.88448	0.7800007	14.28886	0.8290005	1	3	1	0.15	3310	80.6001	50.79603	41.17125	2.886932	158.8223	140.3405	0.7339979	9.596269	271.7356
9/26/2014 4:09:28 PM	16:09:28	0	F	20	51	72.85714	37244.57	38	54.28572	19000	1050.505	94.29794	87.96381	14.26125	30.505	313.8952	27.10001	95.92855	0.7770004	14.28785	0.823	1	3	1	0.15	3220	78	47.82078	40.98125	2.873609	156.6084	140.6931	0.7312955	9.560939	270.7352
9/26/2014 4:09:38 PM	16:09:38	0	F	20	51	72.85714	37244.57	39	55.71429	19500	1045.435	93.41653	87.96381	14.26125	31.345	312.1042	27.89999	95.88448	0.8379993	14.29153	0.8799992	1	3	1	0.15	3317	81	51.15601	42.36126	2.970375	155.6135	143.8921	0.7583754	9.914981	280.7605
9/26/2014 4:09:48 PM	16:09:48	0	F	20	52	74.28571	37974.86	39	55.71429	19500	1045.477	92.44697	87.94672	14.2605	30.045	310.5371	27.92	95.79634	0.7959995	14.28782	0.875	1	3	1	0.15	3335	81.7998	51.81467	42.4655	2.977841	154.7428	143.4543	0.7566273	9.892124	280.1133
9/26/2014 4:09:58 PM	16:09:58	0	F	20	52	74.28571	37974.86	39	55.71429	19500	1051.266	93.19617	87.94672	14.2605	30.045	309.7312	27.925	95.66412	0.7940006	14.29133	0.8810005	1	3	1	0.15	3321	81.3999	51.59716	41.8255	2.932962	154.2951	142.246	0.7568274	9.894741	280.1874
9/26/2014 4:10:08 PM	16:10:08	0	F	20	52	74.28571	37974.86	39	55.71429	19500	1050.674	93.24023	87.90396	14.26087	29.645	309.2834	28.02	95.75226	0.8220005	14.2908	0.8840008	1	3	1	0.15	3332	82	51.89475	42.29087	2.965518	154.0464	143.5678	0.7580414	9.910614	280.6369
9/26/2014 4:10:18 PM	16:10:18	0	F	20	52	72.85714	37244.57	39	55.71429	19500	1050.041	91.9622	87.89539	14.2605	29.88499	308.3879	27.95	95.66412	0.8430004	14.29006	0.8630009	1	3	1	0.15	3349	81.6001	52.15952	41.9705	2.94313	153.5488	141.7215	0.7490312	9.792814	277.3011
9/26/2014 4:10:28 PM	16:10:28	0	F	20	51	74.28571	37974.86	39	55.71429	19500	1051.435	92.18254	87.89539	14.2605	29.88499	307.8954	27.78	95.84042	0.7880001	14.28952	0.8619995	1	3	1	0.15	3331	80.6001	50.99133	41.7955	2.930858	153.2752	141.4009	0.74846	9.785346	277.0897
9/26/2014 4:10:38 PM	16:10:38	0	F	20	51	72.85714	37244.57	39	55.71429	19500	1056.04	92.66733	87.89539	14.2605	30.05	308.164	27.685	95.84042	0.7889996	14.28854	0.8549995	1	3	1	0.15	3313	80.3999	50.84207	41.6105	2.917885	153.4245	141.249	0.7454144	9.745528	275.9622
9/26/2014 4:10:48 PM	16:10:48	0	F	20	51	72.85714	37244.57	39	55.71429	19500	1052.998	93.32839	87.87833	14.26125	30.005	307.7611	27.785	95.57599	0.8239994	14.29099	0.8579998	1	3	1	0.15	3303	80.6001	50.68861	41.39624	2.902708	153.2006	141.1383	0.7469546	9.765665	276.5324
9/26/2014 4:10:58 PM	16:10:58	0	F	20	51	72.85714	37244.57	38	54.28572	19000	1041.971	93.01989	87.87833	14.26125	30.005	306.2835	26.83	95.57599	0.75	14.28976	0.8409996	1	3	1	0.15	3251	79.2002	49.02407	41.22126	2.890438	152.3797	140.4153	0.7377599	9.645453	273.1284
9/26/2014 4:11:08 PM	16:11:08	0	F	20	51	72.85714	37244.57	38	54.28572	19000	1039.985	93.28431	87.88684	14.26088	30.02	304.403	26.815	95.57599	0.7689991	14.28798	0.8360004	1	3	1	0.15	3217	79.2002	48.51137	40.96588	2.872606	151.335	139.8954	0.7341867	9.598738	271.8055
9/26/2014 4:11:18 PM	16:11:18	0	F	20	51	72.85714	37244.57	38	54.28572	19000	1043.787	93.5928	87.86975	14.26125	29.97	303.8657	26.89999	95.44378	0.8080006	14.29103	0.823	1	3	1	0.15	3202	78.2002	47.67551	40.95626	2.871856	151.0365	140.0956	0.7267908	9.502045	269.0675
9/26/2014 4:11:28 PM	16:11:28	0	F	20	51	72.85714	37244.57	37	52.85714	18500	1046.069	94.51829	87.86975	14.26125	29.97	303.6866	26.61501	95.66412	0.7679996	14.28897	0.8360004	1	3	1	0.15	3189	77.6001	47.11758	41.00126	2.875011	150.937	140.9144	0.7337096	9.592501	271.6289
9/26/2014 4:11:38 PM	16:11:38	0	F	20	51	72.85714	37244.57	37	54.28572	19000	1051.181	94.82679	87.89539	14.26087	30.37	303.6866	26.05	95.66412	0.8169994	14.28895	0.816	1	3	1	0.15	3179	78.2002	47.33306	40.74087	2.856828	150.937	140.4081	0.730611	9.55199	270.4818
9/26/2014 4:11:48 PM	16:11:48	5	G	21	51	72.85714	37244.57	38	54.28572	19000	1046.745	95.22342	87.87833	14.2605	31.14	303.8209	26.69501	95.66412	0.7919998	14.2897	0.8390007	1	3	1	0.15	3185	77.7998	47.17959	40.91049	2.868798	151.0116	141.1896	0.7398961	9.673383	273.9193
9/26/2014 4:11:58 PM	16:11:58	15	G	21	51	72.85714	37244.57	37	52.85714	18500	1052.069	94.91492	87.87833	14.2605	31.14	303.4627	26.67999	95.97262	0.7919998	14.2875	0.823	1	3	1	0.15	3183	78	47.27129	40.89549	2.867746	150.8126	140.9167	0.7312481	9.560319	270.7176
9/26/2014 4:12:08 PM	16:12:08	25	G	21	51	72.85714	37244.57	38	54.28572	19000	1044.632	95.31156	87.86975	14.26125	31.24001	303.0598	26.45	96.10483	0.7469997	14.28947	0.8430004	1	3	1	0.15	3200	78.6001	47.76741	41.29625	2.895697	150.5888	142.342	0.7399994	9.674732	273.9575
9/26/2014 4:12:18 PM	16:12:18	35	G	21	51	72.85714	37244.57	37	52.85714	18500	1047.928	95.22342	87.87833	14.26088	31.515	302.209	26.47501	96.06076	0.7849998	14.28925	0.8279991	1	3	1	0.15	3189	78.3999	47.60321	40.78088	2.859634	150.1161	140.8179	0.7334393	9.588966	271.5288
9/26/2014 4:12:28 PM	16:12:28	45	G	21	51	72.85714	37244.57	38	54.28572	19000	1045.14	95.22342	87.87833	14.26088	31.515	302.5673	26.52	96.28111	0.8309994	14.28986	0.8299999	1	3	1	0.15	3192	77.7998	47.40495	40.98588	2.874009	150.3152	141.4007	0.7341967	9.598867	271.8092
9/26/2014 4:12:38 PM	16:12:38	55	G	21	51	72.85714	37244.57	38	54.28572	19000	1044.548	94.73865	87.87833	14.26088	31.16	301.9852	26.77	96.36926	0.7399998	14.28715	0.8320007	1	3	1	0.15	3197	78.2002	47.60107	41.11587	2.883124	149.9918	141.4067	0.7384536	9.654522	273.3852
9/26/2014 4:12:48 PM	16:12:48	65	G	21	51	72.85714	37244.57	37	52.85714	18500	1046.449	94.342	87.87833	14.2605	31.13	301.627	26.77499	96.54554	0.7830009	14.28995	0.8330002	1	3	1	0.15	3184	78.6001	47.77101	40.9155	2.869149	149.7928	140.5457	0.7340313	9.596706	271.748
9/26/2014 4:12:58 PM	16:12:58	75	G	21	51	72.85714	37244.57	38	52.85714	18500	1050.379	94.6505	87.87833	14.2605	31.13	301.8061	26.845	96.45739	0.7950001	14.28854	0.8390007	1	3	1	0.15	3183	78.6001	47.51365	41.1555	2.885979	149.8923	141.4558	0.7353545	9.614006	272.2379
9/26/2014 4:13:08 PM	16:13:08	85	G	21	51	72.85714	37244.57	37	52.85714	18500	1052.576	94.38609	87.88684	14.26088	30.89	301.7613	26.66	96.41332	0.7849998	14.29073	0.8239994	1	3	1	0.15	3175	77.7998	47.03146	40.96588	2.872606	149.8674	140.7184	0.7283536	9.522476	269.6461
9/26/2014 4:13:18 PM	16:13:18	95	G	21	51	72.85714	37244.57	37	52.85714	18500	1045.984	94.78271	87.90396	14.2605	30.91499	301.9852	26.83501	96.63368	0.8360004	14.29032	0.8449993	1	3	1	0.15	3203	78.6001	48.05608	41.2905	2.895445	149.9918	141.936	0.7418733	9.699232	274.6512
9/26/2014 4:13:28 PM	16:13:28	105	G	21	51	72.85714	37244.57	37	52.85714	18500	1047.675	93.98943	87.90396	14.2605	30.91499	301.3583	26.845	96.80996	0.8040009	14.28811	0.8320007	1	3	1	0.15	3198	78.3999	47.85946	41.1555	2.885979	149.6435	140.9614	0.7351092	9.610798	272.147
9/26/2014 4:13:38 PM	16:13:38	115	G	21	51	72.85714	37244.57	38	54.28572	19000	1052.111	94.16573	87.89539	14.2605	30.78999	301.4031	26.84	96.58961	0.7880001	14.28739	0.8349991	1	3	1	0.15	3192	77.7998	47.28328	40.60049	2.84706	149.6684	139.5182	0.7339113	9.595137	271.7036
9/26/2014 4:13:48 PM	16:13:48	125	G	21	51	72.85714	37244.57	38	54.28572	19000	1048.182	93.54874	87.92105	14.2605	30.14999	301.3136	26.27499	96.63368	0.7460003	14.28905	0.8360004	1	3	1	0.15	3193	78.6001	47.78463	41.1105	2.882823	149.6187	140.5048	0.7365828	9.630064	272.6926
9/26/2014 4:14:11 PM	16:14:11	0	G	21	51	72.85714	37244.57	38	54.28572	19000	1041.633	93.32839	87.92105	14.26012	30.255	300.9554	27.02499	96.67775	0.8400002	14.28972	0.8509998	1	3	1	0.15	3224	79	48.49403	41.16012	2.886379	149.4196	140.4831	0.7431395	9.715786	275.12
9/26/2014 4:14:21 PM	16:14:21	0	G	21	51	72.85714	37244.57	38	54.28572	19000	1037.112	92.00626	87.95523	14.2605	29.91499	299.7465	26.92999	96.67775	0.816	14.2892	0.8560009	1	3	1	0.15	3234	79	48.89069	41.3755	2.901406	148.748	140.0958	0.7453007	9.744042	275.9201
9/26/2014 4:14:31 PM	16:14:31	0	G	21	51	72.85714	37244.57	38	54.28572	19000	1039.267	91.12485	87.94672	14.26012	29.39	298.9853	26.95	96.45739	0.7630005	14.28857	0.8460007	1	3	1	0.15	3230	79	48.7074	41.53013	2.912326	148.3252	139.8706	0.7410645	9.688659	274.3518
9/26/2014 4:14:41 PM	16:14:41	0	G	21	51	72.85714	37244.57	38	54.28572	19000	1038.422	91.12485	87.94672	14.26012	29.39	298.8957	27.05	96.36926	0.7700005	14.29066	0.8479996	1	3	1	0.15	3221	78.2002	47.95841	41.27512	2.894444	148.2754	139.1575	0.742062	9.701699	274.7211
9/26/2014 4:14:51 PM	16:14:51	0	G	21	51	72.85714	37244.57	38	54.28572	19000	1043.999	91.213	87.98087	14.26012	29.34	299.0301	26.75999	96.23705	0.7649994	14.28947	0.8509998	1	3	1	0.15	3217	78.6001	48.26612	40.99512	2.874808	148.35	138.4367	0.7434415	9.719734	275.2318
9/26/2014 4:15:01 PM	16:15:01	0	G	21	51	72.85714	37244.57	38	54.28572	19000	1046.407	92.35883	87.96381	14.26088	29.45	299.1644	26.64999	96.23705	0.7789993	14.28809	0.8330002	1	3	1	0.15	3207	78.7998	47.99414	40.58587	2.845959	148.4247	138.1273	0.7355087	9.616021	272.295
9/26/2014 4:15:11 PM	16:15:11	3	G	22	51	72.85714	37244.57	38	54.28572	19000	1050.252	93.85723	87.96381	14.26088	29.45	300.0151	26.53999	96.41332	0.8299999	14.28874	0.8360004	1	3	1	0.15	3198	78.2002	47.61596	40.99588	2.87471	148.8973	140.4083	0.7376062	9.643444	273.0715
9/26/2014 4:15:21 PM	16:15:21	13	G	22	51	72.85714	37244.57	38	54.28572	19000	1053.674	94.12166	87.98087	14.26012	29.845	300.1494	26.985	96.41332	0.7889996	14.28969	0.8430004	1	3	1	0.15	3213	78.3999	47.96147	41.00013	2.875159	148.9719	140.624	0.7411168	9.689341	274.3711
9/26/2014 4:15:31 PM	16:15:31	23	G	22	51	72.85714	37244.57	38	54.28572	19000	1044.928	93.98943	87.98087	14.26012	29.845	300.1942	26.91499	96.32519	0.823	14.28857	0.8570004	1	3	1	0.15	3241	78.6001	48.37943	41.69512	2.923896	148.9968	142.4808	0.7459491	9.75252	276.1601
9/26/2014 4:15:41 PM	16:15:41	33	G	22	51	72.85714	37244.57	38	54.28572	19000	1054.097	94.47422	87.96381	14.2605	30.09	300.7762	27.17	96.50147	0.7919998	14.28941	0.8470001	1	3	1	0.15	3228	79.7998	49.04577	41.2155	2.890186	149.3201	141.2956	0.7393174	9.665815	273.705
9/26/2014 4:15:51 PM	16:15:51	43	G	22	51	72.85714	37244.57	38	54.28572	19000	1048.013	93.98943	87.98087	14.2605	29.98	300.642	27.19	96.50147	0.8349991	14.29068	0.8470001	1	3	1	0.15	3253	80.2002	49.54961	41.8455	2.934365	149.2455	142.8978	0.7415425	9.694906	274.5287
9/26/2014 4:16:01 PM	16:16:01	53	G	22	51	72.85714	37244.57	38	54.28572	19000	1044.759	92.84361	87.98087	14.2605	29.98	300.2838	27.47	96.54554	0.816	14.29032	0.8640003	1	3	1	0.15	3281	79.7998	49.85104	41.5705	2.91508	149.0465	141.2693	0.7488986	9.79108	277.252
9/26/2014 4:16:11 PM	16:16:11	63	G	22	51	72.85714	37244.57	38	54.28572	19000	1045.393	92.13847	87.97235	14.2605	29.595	300.1494	27.515	96.36926	0.8260002	14.28995	0.8799992	1	3	1	0.15	3296	80.3999	50.45554	41.83549	2.933663	149.0217	141.479	0.7558716	9.882245	279.8336
9/26/2014 4:16:21 PM	16:16:21	73	G	22	51	72.85714	37244.57	39	55.71429	19500	1047.928	91.82998	87.98087	14.2605	29.66	300.239	27.7	96.23705	0.8220005	14.2927	0.8780003	1	3	1	0.15	3306	80.3999	50.48292	41.9855	2.944182	149.0217	141.6636	0.7551862	9.873284	279.5798
9/26/2014 4:16:31 PM	16:16:31	83	G	22	51	72.85714	37244.57	39	55.71429	19500	1045.9	91.74184	87.97235	14.26088	29.64999	300.3285	27.75999	96.19298	0.8199997	14.29177	0.8640003	1	3	1	0.15	3310	80.6001	50.66986	42.06587	2.949739	149.0714	141.8168	0.7474172	9.771712	276.7036
9/26/2014 4:16:41 PM	16:16:41	93	G	22	51	72.85714	37244.57	39	55.71429	19500	1043.154	91.16891	87.97235	14.26088	29.64999	300.4629	27.78999	96.19298	0.8279991	14.29037	0.8759995	1	3	1	0.15	3310	81.3999	51.30009	42.26088	2.963414	149.146	141.924	0.7543064	9.861782	279.2541
9/26/2014 4:16:51 PM	16:16:51	103	G	22	51	72.85714	37244.57	39	55.71429	19500	1041.802	90.41972	87.98087	14.2605	29.75999	300.0599	28.075	96.06076	0.8360004	14.28927	0.8899994	1	3	1	0.15	3324	80.6001	51.01088	42.1255	2.953999	148.9222	140.9895	0.7603273	9.9405	281.4832
9/26/2014 4:17:01 PM	16:17:01	113	G	22	51	72.85714	37244.57	39	55.71429	19500	1043.027	89.75867	87.98087	14.2605	29.75999	299.8808	27.965	96.01669	0.8279991	14.29176	0.8670006	1	3	1	0.15	3335	81.2002	51.68755	41.8255	2.932962	148.8227	139.6632	0.7505569	9.812761	277.866
9/26/2014 4:17:11 PM	16:17:11	123	G	22	52	74.28571	37974.86	40	55.71429	19500	1045.984	89.80274	88.01511	14.26088	29.7	299.9703	28.23	95.97262	0.823	14.29123	0.8789997	1	3	1	0.15	3325	81.6001	51.6593	41.89088	2.937469	148.8724	139.8743	0.7557424	9.880556	279.7857
9/26/2014 4:17:21 PM	16:17:21	133	G	22	51	72.85714	37244.57	39	55.71429	19500	1047.379	89.67052	88.00656	14.26012	29.66	300.1046	28.46001	95.97262	0.8239994	14.29084	0.8950005	1	3	1	0.15	3343	81.7998	51.93896	42.35012	2.969828	148.947	141.0461	0.7629937	9.97536	282.4703
9/26/2014 4:17:32 PM	16:17:32	0	G	22	52	72.85714	37244.57	39	55.71429	19500	1048.139	89.49424	88.01511	14.26012	29.075	300.1942	28.405	95.79634	0.8339996	14.28951	0.8959999	1	3	1	0.15	3356	81.3999	52.01301	42.11013	2.952999	148.9968	140.2535	0.7622209	9.965257	282.1842
9/26/2014 4:17:42 PM	16:17:42	0	G	22	51	72.85714	37244.57	40	57.14286	20000	1047.294	89.67052	88.01511	14.26012	29.075	300.4629	28.33	95.66412	0.8759995	14.29171	0.9109993	1	3	1	0.15	3364	80.7998	51.75264	42.64013	2.990165	149.146	141.8399	0.7695697	10.06133	284.9048
9/26/2014 4:17:52 PM	16:17:52	0	G	22	52	72.85714	37244.57	39	55.71429	19500	1046.196	89.71458	87.98087	14.26012	28.845	300.5524	28.14999	95.62006	0.8059998	14.29059	0.8959999	1	3	1	0.15	3372	82.6001	53.03155	42.34013	2.969127	149.1958	141.0519	0.7632446	9.97864	282.5631
9/26/2014 4:18:02 PM	16:18:02	0	G	22	51	72.85714	37244.57	40	57.14286	20000	1047.041	89.4061	87.99799	14.26012	28.53	300.5524	28.28999	95.62006	0.8500004	14.29171	0.8850002	1	3	1	0.15	3378	82.2002	52.86871	42.69512	2.994022	149.1958	141.7902	0.7585638	9.917442	280.8302
9/26/2014 4:18:12 PM	16:18:12	0	G	22	52	74.28571	37974.86	40	57.14286	20000	1043.787	89.62645	87.99799	14.26012	28.53	300.642	28.32001	95.57599	0.8479996	14.29027	0.9080009	1	3	1	0.15	3378	82.3999	52.99715	42.41012	2.974036	149.2455	141.1774	0.7683432	10.0453	284.4507
9/26/2014 4:18:22 PM	16:18:22	0	G	22	52	74.28571	37974.86	40	57.14286	20000	1048.858	89.89088	87.99799	14.26012	28.47501	300.9106	28.705	95.44378	0.8530006	14.29037	0.9150009	1	3	1	0.15	3381	82.2002	52.91566	42.74512	2.997528	149.3948	142.293	0.7713799	10.085	285.575
9/26/2014 4:18:32 PM	16:18:32	4	G	23	52	74.28571	37974.86	40	57.14286	20000	1048.224	89.62645	87.98087	14.2605	28.47	301.1792	28.705	95.31156	0.8309994	14.29064	0.9220009	1	3	1	0.15	3407	83.3999	53.97128	43.2155	3.030434	149.544	143.367	0.7744202	10.12475	286.7005
9/26/2014 4:18:42 PM	16:18:42	14	G	23	52	74.28571	37974.86	40	57.14286	20000	1048.604	89.62645	87.98087	14.2605	28.47	301.8956	28.63499	95.35563	0.9020004	14.2923	0.9160004	1	3	1	0.15	3422	84.2002	54.73	43.00549	3.015707	149.942	142.7981	0.771925	10.09213	285.7767
9/26/2014 4:18:52 PM	16:18:52	24	G	23	52	74.28571	37974.86	41	57.14286	20000	1050.125	89.62645	87.98087	14.2605	28.44	302.2986	29.17999	95.31156	0.9099998	14.29241	0.9190006	1	3	1	0.15	3435	84	54.80699	42.9805	3.013955	150.1659	142.7303	0.7723762	10.09803	285.9438
9/26/2014 4:19:02 PM	16:19:02	34	G	23	52	74.28571	37974.86	40	57.14286	20000	1052.66	89.89088	87.96381	14.26012	28.19501	303.4627	29.125	95.17935	0.8549995	14.29298	0.9260006	1	3	1	0.15	3435	84.2002	55.06885	43.06512	3.019968	150.738	143.1632	0.7762468	10.14863	287.3767
9/26/2014 4:19:12 PM	16:19:12	44	G	23	52	74.28571	37974.86	40	57.14286	20000	1050.505	89.80274	87.96381	14.26012	28.19501	303.4627	29.22501	95.17935	0.8419991	14.29088	0.9330006	1	3	1	0.15	3448	84.6001	55.5398	43.37513	3.041708	150.8126	143.9351	0.7778652	10.16979	287.9759
9/26/2014 4:19:22 PM	16:19:22	54	G	23	52	74.28571	37974.86	41	58.57143	20500	1052.407	90.1553	87.98087	14.26012	28.38499	303.7762	28.91	95.17935	0.8770008	14.2899	0.927	1	3	1	0.15	3446	84.6001	55.50759	43.19512	3.029084	150.9868	143.7159	0.7740604	10.12005	286.5673
9/26/2014 4:19:32 PM	16:19:32	64	G	23	52	74.28571	37974.86	41	58.57143	20500	1054.181	90.41972	87.98087	14.25975	28.565	303.8657	29.215	95.04713	0.8920002	14.2917	0.9260006	1	3	1	0.15	3453	84.3999	55.48872	42.92975	3.010554	151.0365	143.199	0.7763057	10.1494	287.3985
9/26/2014 4:19:42 PM	16:19:42	74	G	23	52	74.28571	37974.86	41	58.57143	20500	1054.815	90.77229	87.98087	14.25975	28.565	304.5373	29.05499	95.17935	0.8400002	14.29087	0.9260006	1	3	1	0.15	3456	83.7998	55.14206	43.25975	3.033696	151.4096	144.3619	0.7761744	10.14768	287.3499
9/26/2014 4:19:52 PM	16:19:52	84	G	23	52	74.28571	37974.86	41	58.57143	20500	1054.688	90.86044	87.98087	14.25938	28.67	303.8657	29.005	95.04713	0.8390007	14.29078	0.9330006	1	3	1	0.15	3472	84	55.52968	43.31437	3.037606	151.0365	144.5797	0.7792134	10.18742	288.475
9/26/2014 4:20:02 PM	16:20:02	94	G	23	52	74.28571	37974.86	41	58.57143	20500	1055.576	90.99264	87.98087	14.25938	28.67	304.1791	28.795	95.22342	0.8880005	14.29071	0.934	1	3	1	0.15	3471	84.7998	56.04226	43.45937	3.047775	151.2106	145.072	0.7765816	10.15301	287.5007
9/26/2014 4:20:12 PM	16:20:12	104	G	23	52	74.28571	37974.86	41	57.14286	20000	1057.096	91.25706	87.98087	14.2605	28.785	305.0298	29.17999	95.26749	0.8869991	14.29201	0.9419994	1	3	1	0.15	3462	84.3999	55.63335	43.21049	3.030083	151.6833	144.5899	0.7799135	10.19657	288.7342
9/26/2014 4:20:22 PM	16:20:22	114	G	23	52	74.28571	37974.86	41	58.57143	20500	1057.012	91.47741	87.96381	14.25975	29.50999	305.2985	29.095	95.26749	0.8299999	14.29108	0.9300003	1	3	1	0.15	3465	84.3999	55.94538	43.54974	3.054033	151.8325	145.6811	0.7773708	10.16333	287.7929
9/26/2014 4:20:32 PM	16:20:32	124	G	23	52	74.28571	37974.86	41	58.57143	20500	1057.519	91.38927	87.97235	14.259	29.44	305.2985	29.315	95.3997	0.9099998	14.29026	0.9300003	1	3	1	0.15	3465	84.3999	55.54981	43.15401	3.02644	151.8325	144.5491	0.7797614	10.19458	288.6779
9/26/2014 4:20:42 PM	16:20:42	134	G	23	52	74.28571	37974.86	41	58.57143	20500	1054.857	91.43334	87.97235	14.259	29.44	304.9851	28.94	95.3997	0.8360004	14.28849	0.9330006	1	3	1	0.15	3469	85	56.27443	43.48401	3.049583	151.6584	145.4763	0.7788784	10.18304	288.351
9/26/2014 4:20:52 PM	16:20:52	0	G	23	52	74.28571	37974.86	40	57.14286	20000	1059.42	92.05034	87.96381	14.25975	29.63499	305.791	29.03	95.35563	0.8630009	14.29231	0.9389992	1	3	1	0.15	3456	84.2002	55.40552	43.04974	3.018969	152.1061	144.7603	0.7815195	10.21757	289.3288
9/26/2014 4:21:02 PM	16:21:02	0	G	23	52	74.28571	37974.86	41	58.57143	20500	1051.815	91.78591	87.95523	14.25975	30.44501	305.5671	29.08	95.3997	0.8579998	14.29322	0.9330006	1	3	1	0.15	3466	84.3999	55.56583	43.16475	3.027034	151.9818	144.8728	0.7790326	10.18505	288.4081
